Observation data for Canadian on 08/13/2019      Previous  Date       Current Mesonet Observations  Soil Data  Daily Summary Page  Observations in Plain Language
KCA1 130500Z 16011KT 22/21 A30 RMK A01 T02190206  RH  093%=      5-min Rain = 0
KCA1 130501Z 16010KT 22/21 A30 RMK A01 T02190206  RH  093%=      5-min Rain = 0
KCA1 130502Z 16010KT 22/21 A30 RMK A01 T02190206  RH  092%=      5-min Rain = 0
KCA1 130503Z 15008KT 22/21 A30 RMK A01 T02190206  RH  092%=      5-min Rain = 0
KCA1 130504Z 15007KT 22/21 A30 RMK A01 T02190205  RH  092%=      5-min Rain = 0
KCA1 130505Z 15006KT 22/21 A30 RMK A01 T02190206  RH  092%=      5-min Rain = 0
KCA1 130506Z 15007KT 22/21 A30 RMK A01 T02190206  RH  092%=      5-min Rain = 0
KCA1 130507Z 14007KT 22/21 A30 RMK A01 T02180205  RH  092%=      5-min Rain = 0
KCA1 130508Z 14006KT 22/21 A30 RMK A01 T02180205  RH  092%=      5-min Rain = 0
KCA1 130509Z 14008KT 22/20 A30 RMK A01 T02180204  RH  091%=      5-min Rain = 0
KCA1 130510Z 13007KT 22/20 A30 RMK A01 T02180202  RH  091%=      5-min Rain = 0
KCA1 130511Z 12007KT 22/20 A30 RMK A01 T02180203  RH  091%=      5-min Rain = 0
KCA1 130512Z 12008KT 22/20 A30 RMK A01 T02180203  RH  091%=      5-min Rain = 0
KCA1 130513Z 12008KT 22/20 A30 RMK A01 T02180203  RH  091%=      5-min Rain = 0
KCA1 130514Z 13009KT 22/20 A30 RMK A01 T02180204  RH  091%=      5-min Rain = 0
KCA1 130515Z 12010KT 22/20 A30 RMK A01 T02180203  RH  091%=      5-min Rain = 0
KCA1 130516Z 13010KT 22/20 A30 RMK A01 T02180203  RH  091%=      5-min Rain = 0
KCA1 130517Z 13009KT 22/20 A30 RMK A01 T02180204  RH  092%=      5-min Rain = 0
KCA1 130518Z 14009KT 22/21 A30 RMK A01 T02180205  RH  092%=      5-min Rain = 0
KCA1 130519Z 14009KT 22/21 A30 RMK A01 T02170205  RH  093%=      5-min Rain = 0
KCA1 130520Z 14011KT 22/21 A30 RMK A01 T02170205  RH  093%=      5-min Rain = 0
KCA1 130521Z 14011KT 22/20 A30 RMK A01 T02160204  RH  093%=      5-min Rain = 0
KCA1 130522Z 14012KT 22/20 A30 RMK A01 T02170204  RH  092%=      5-min Rain = 0
KCA1 130523Z 14012KT 22/20 A30 RMK A01 T02170204  RH  092%=      5-min Rain = 0
KCA1 130524Z 14011KT 22/20 A30 RMK A01 T02170204  RH  092%=      5-min Rain = 0
KCA1 130525Z 14011KT 22/20 A30 RMK A01 T02170204  RH  092%=      5-min Rain = 0
KCA1 130526Z 14012KT 22/21 A30 RMK A01 T02170205  RH  093%=      5-min Rain = 0
KCA1 130527Z 15011KT 22/21 A3001 RMK A01 T02160205  RH  093%=      5-min Rain = 0
KCA1 130528Z 15010KT 22/21 A30 RMK A01 T02160205  RH  093%=      5-min Rain = 0
KCA1 130529Z 15010KT 22/21 A30 RMK A01 T02160205  RH  094%=      5-min Rain = 0
KCA1 130530Z 14009KT 22/21 A30 RMK A01 T02160206  RH  094%=      5-min Rain = 0
KCA1 130531Z 13010KT 22/21 A30 RMK A01 T02150206  RH  095%=      5-min Rain = 0
KCA1 130532Z 13009KT 22/21 A30 RMK A01 T02150206  RH  095%=      5-min Rain = 0
KCA1 130533Z 13010KT 22/21 A30 RMK A01 T02150206  RH  095%=      5-min Rain = 0
KCA1 130534Z 13011KT 22/21 A30 RMK A01 T02150206  RH  095%=      5-min Rain = 0
KCA1 130535Z 13012KT 22/21 A30 RMK A01 T02150206  RH  095%=      5-min Rain = 0
KCA1 130536Z 13012KT 22/21 A30 RMK A01 T02150205  RH  094%=      5-min Rain = 0
KCA1 130537Z 13013KT 22/21 A30 RMK A01 T02150205  RH  094%=      5-min Rain = 0
KCA1 130538Z 13013KT 22/21 A30 RMK A01 T02150205  RH  094%=      5-min Rain = 0
KCA1 130539Z 13013KT 22/21 A30 RMK A01 T02150205  RH  094%=      5-min Rain = 0
KCA1 130540Z 13012KT 21/21 A30 RMK A01 T02140206  RH  095%=      5-min Rain = 0
KCA1 130541Z 13012KT 21/21 A30 RMK A01 T02140206  RH  095%=      5-min Rain = 0.01
KCA1 130542Z 13013KT 21/21 A30 RMK A01 T02140206  RH  095%=      5-min Rain = 0
KCA1 130543Z 13012KT 21/21 A30 RMK A01 T02130206  RH  095%=      5-min Rain = 0
KCA1 130544Z 12012KT 21/21 A30 RMK A01 T02130206  RH  096%=      5-min Rain = 0
KCA1 130545Z 12012KT 21/21 A30 RMK A01 T02130206  RH  096%=      5-min Rain = 0
KCA1 130546Z 12011KT 21/21 A30 RMK A01 T02120206  RH  096%=      5-min Rain = 0
KCA1 130547Z 12012KT 21/21 A30 RMK A01 T02120206  RH  096%=      5-min Rain = 0
KCA1 130548Z 13010KT 21/21 A30 RMK A01 T02120206  RH  097%=      5-min Rain = 0
KCA1 130549Z 12012KT 21/21 A30 RMK A01 T02120207  RH  097%=      5-min Rain = 0
KCA1 130550Z 12011KT 21/21 A2999 RMK A01 T02110206  RH  097%=      5-min Rain = 0
KCA1 130551Z 12013KT 21/21 A2999 RMK A01 T02110206  RH  097%=      5-min Rain = 0
KCA1 130552Z 12013KT 21/21 A2999 RMK A01 T02110206  RH  097%=      5-min Rain = 0
KCA1 130553Z 12013KT 21/21 A2999 RMK A01 T02100206  RH  097%=      5-min Rain = 0
KCA1 130554Z 12011KT 21/21 A2999 RMK A01 T02110206  RH  097%=      5-min Rain = 0
KCA1 130555Z 12012KT 21/21 A2999 RMK A01 T02100206  RH  098%=      5-min Rain = 0
KCA1 130556Z 12015KT 21/21 A2998 RMK A01 T02100206  RH  098%=      5-min Rain = 0
KCA1 130557Z 12012KT 21/21 A2998 RMK A01 T02090205  RH  098%=      5-min Rain = 0
KCA1 130558Z 11013KT 21/21 A2998 RMK A01 T02100206  RH  098%=      5-min Rain = 0
KCA1 130559Z 11013KT 21/21 A2998 RMK A01 T02090206  RH  098%=      5-min Rain = 0
KCA1 130600Z 11012KT 21/21 A2998 RMK A01 T02090206  RH  098%=      5-min Rain = 0
KCA1 130601Z 11012KT 21/21 A2998 RMK A01 T02090206  RH  098%=      5-min Rain = 0
KCA1 130602Z 10013KT 21/21 A2998 RMK A01 T02090207  RH  098%=      5-min Rain = 0
KCA1 130603Z 11014KT 21/21 A2998 RMK A01 T02090206  RH  098%=      5-min Rain = 0
KCA1 130604Z 11012KT 21/21 A2998 RMK A01 T02090205  RH  098%=      5-min Rain = 0
KCA1 130605Z 11012KT 21/21 A2999 RMK A01 T02090205  RH  097%=      5-min Rain = 0
KCA1 130606Z 11010KT 21/21 A2999 RMK A01 T02100205  RH  097%=      5-min Rain = 0
KCA1 130607Z 12012KT 21/21 A2999 RMK A01 T02100205  RH  097%=      5-min Rain = 0
KCA1 130608Z 12010KT 21/21 A2999 RMK A01 T02100205  RH  097%=      5-min Rain = 0
KCA1 130609Z 11010KT 21/21 A2999 RMK A01 T02110205  RH  096%=      5-min Rain = 0
KCA1 130610Z 12010KT 21/20 A2999 RMK A01 T02110204  RH  096%=      5-min Rain = 0
KCA1 130611Z 11012KT 21/20 A2999 RMK A01 T02110204  RH  096%=      5-min Rain = 0
KCA1 130612Z 11012KT 21/20 A2999 RMK A01 T02110204  RH  095%=      5-min Rain = 0
KCA1 130613Z 11011KT 21/20 A2999 RMK A01 T02120203  RH  095%=      5-min Rain = 0
KCA1 130614Z 11011KT 21/20 A2999 RMK A01 T02120203  RH  095%=      5-min Rain = 0
KCA1 130615Z 11011KT 21/20 A2999 RMK A01 T02120204  RH  095%=      5-min Rain = 0
KCA1 130616Z 12011KT 21/20 A30 RMK A01 T02120203  RH  095%=      5-min Rain = 0
KCA1 130617Z 13012KT 21/20 A30 RMK A01 T02130203  RH  094%=      5-min Rain = 0
KCA1 130618Z 13010KT 21/20 A30 RMK A01 T02130203  RH  094%=      5-min Rain = 0
KCA1 130619Z 13012KT 21/20 A30 RMK A01 T02130203  RH  094%=      5-min Rain = 0
KCA1 130620Z 13011KT 21/20 A30 RMK A01 T02130203  RH  094%=      5-min Rain = 0
KCA1 130621Z 12009KT 21/20 A30 RMK A01 T02140203  RH  094%=      5-min Rain = 0
KCA1 130622Z 12008KT 21/20 A30 RMK A01 T02140203  RH  094%=      5-min Rain = 0
KCA1 130623Z 12008KT 21/20 A30 RMK A01 T02140204  RH  094%=      5-min Rain = 0
KCA1 130624Z 12010KT 21/20 A30 RMK A01 T02130204  RH  095%=      5-min Rain = 0
KCA1 130625Z 13009KT 21/20 A30 RMK A01 T02120204  RH  095%=      5-min Rain = 0
KCA1 130626Z 13009KT 21/20 A30 RMK A01 T02120204  RH  095%=      5-min Rain = 0
KCA1 130627Z 13008KT 21/21 A30 RMK A01 T02120205  RH  096%=      5-min Rain = 0
KCA1 130628Z 13010KT 21/21 A30 RMK A01 T02110205  RH  096%=      5-min Rain = 0
KCA1 130629Z 13010KT 21/21 A30 RMK A01 T02110205  RH  096%=      5-min Rain = 0
KCA1 130630Z 13008KT 21/21 A30 RMK A01 T02110205  RH  096%=      5-min Rain = 0
KCA1 130631Z 13011KT 21/21 A30 RMK A01 T02110205  RH  096%=      5-min Rain = 0
KCA1 130632Z 12010KT 21/21 A30 RMK A01 T02120205  RH  096%=      5-min Rain = 0
KCA1 130633Z 12009KT 21/21 A30 RMK A01 T02120205  RH  096%=      5-min Rain = 0
KCA1 130634Z 12009KT 21/21 A30 RMK A01 T02120205  RH  096%=      5-min Rain = 0
KCA1 130635Z 12010KT 21/20 A30 RMK A01 T02120204  RH  096%=      5-min Rain = 0
KCA1 130636Z 12011KT 21/20 A30 RMK A01 T02120204  RH  095%=      5-min Rain = 0
KCA1 130637Z 12011KT 21/21 A30 RMK A01 T02130205  RH  095%=      5-min Rain = 0
KCA1 130638Z 13010KT 21/20 A30 RMK A01 T02130204  RH  094%=      5-min Rain = 0
KCA1 130639Z 13010KT 21/21 A30 RMK A01 T02140205  RH  094%=      5-min Rain = 0
KCA1 130640Z 13010KT 21/21 A30 RMK A01 T02140205  RH  095%=      5-min Rain = 0
KCA1 130641Z 13010KT 21/21 A30 RMK A01 T02140205  RH  094%=      5-min Rain = 0
KCA1 130642Z 13010KT 21/21 A30 RMK A01 T02140205  RH  094%=      5-min Rain = 0
KCA1 130643Z 13009KT 21/21 A30 RMK A01 T02140205  RH  094%=      5-min Rain = 0
KCA1 130644Z 12010KT 21/21 A30 RMK A01 T02140205  RH  094%=      5-min Rain = 0
KCA1 130645Z 12009KT 21/21 A30 RMK A01 T02140205  RH  094%=      5-min Rain = 0
KCA1 130646Z 12010KT 21/20 A30 RMK A01 T02140204  RH  094%=      5-min Rain = 0
KCA1 130647Z 12009KT 21/20 A30 RMK A01 T02140204  RH  094%=      5-min Rain = 0
KCA1 130648Z 12008KT 21/20 A30 RMK A01 T02140204  RH  094%=      5-min Rain = 0
KCA1 130649Z 12009KT 21/21 A30 RMK A01 T02140205  RH  094%=      5-min Rain = 0
KCA1 130650Z 12010KT 21/21 A2999 RMK A01 T02140205  RH  094%=      5-min Rain = 0
KCA1 130651Z 12009KT 21/21 A2999 RMK A01 T02140205  RH  094%=      5-min Rain = 0
KCA1 130652Z 12009KT 21/21 A2999 RMK A01 T02140205  RH  095%=      5-min Rain = 0
KCA1 130653Z 12009KT 21/21 A2999 RMK A01 T02140205  RH  095%=      5-min Rain = 0
KCA1 130654Z 12010KT 21/21 A2999 RMK A01 T02140205  RH  095%=      5-min Rain = 0
KCA1 130655Z 12010KT 21/20 A2999 RMK A01 T02140204  RH  094%=      5-min Rain = 0
KCA1 130656Z 12010KT 21/20 A2999 RMK A01 T02140204  RH  094%=      5-min Rain = 0
KCA1 130657Z 12009KT 21/21 A2999 RMK A01 T02140205  RH  094%=      5-min Rain = 0
KCA1 130658Z 12010KT 21/20 A2999 RMK A01 T02140204  RH  094%=      5-min Rain = 0
KCA1 130659Z 12009KT 22/20 A2999 RMK A01 T02150204  RH  094%=      5-min Rain = 0
KCA1 130700Z 12009KT 22/20 A2999 RMK A01 T02150204  RH  094%=      5-min Rain = 0
KCA1 130701Z 12009KT 22/20 A2999 RMK A01 T02150204  RH  094%=      5-min Rain = 0
KCA1 130702Z 12010KT 22/21 A2999 RMK A01 T02150205  RH  094%=      5-min Rain = 0
KCA1 130703Z 12009KT 22/20 A2999 RMK A01 T02150204  RH  094%=      5-min Rain = 0
KCA1 130704Z 12009KT 22/21 A2999 RMK A01 T02150205  RH  094%=      5-min Rain = 0
KCA1 130705Z 12011KT 22/21 A2999 RMK A01 T02150205  RH  094%=      5-min Rain = 0
KCA1 130706Z 12010KT 22/20 A2999 RMK A01 T02150204  RH  094%=      5-min Rain = 0
KCA1 130707Z 12011KT 22/20 A2999 RMK A01 T02150204  RH  094%=      5-min Rain = 0
KCA1 130708Z 12011KT 22/21 A2999 RMK A01 T02160205  RH  093%=      5-min Rain = 0
KCA1 130709Z 12010KT 22/20 A2999 RMK A01 T02150204  RH  093%=      5-min Rain = 0
KCA1 130710Z 12010KT 22/21 A2999 RMK A01 T02160205  RH  093%=      5-min Rain = 0
KCA1 130711Z 12010KT 22/21 A2999 RMK A01 T02160205  RH  093%=      5-min Rain = 0
KCA1 130712Z 12010KT 22/21 A2999 RMK A01 T02160205  RH  093%=      5-min Rain = 0
KCA1 130713Z 12010KT 22/20 A2999 RMK A01 T02160204  RH  093%=      5-min Rain = 0
KCA1 130714Z 12010KT 22/21 A2999 RMK A01 T02160205  RH  093%=      5-min Rain = 0
KCA1 130715Z 12011KT 22/21 A2999 RMK A01 T02160205  RH  093%=      5-min Rain = 0
KCA1 130716Z 12010KT 22/21 A2999 RMK A01 T02160205  RH  093%=      5-min Rain = 0
KCA1 130717Z 12011KT 22/21 A2999 RMK A01 T02160205  RH  093%=      5-min Rain = 0
KCA1 130718Z 12011KT 22/20 A2999 RMK A01 T02160204  RH  093%=      5-min Rain = 0
KCA1 130719Z 12011KT 22/20 A2999 RMK A01 T02160204  RH  093%=      5-min Rain = 0
KCA1 130720Z 12011KT 22/20 A2999 RMK A01 T02160204  RH  093%=      5-min Rain = 0
KCA1 130721Z 12011KT 22/20 A2999 RMK A01 T02160204  RH  092%=      5-min Rain = 0
KCA1 130722Z 12011KT 22/20 A2999 RMK A01 T02170204  RH  092%=      5-min Rain = 0
KCA1 130723Z 12011KT 22/20 A2998 RMK A01 T02170204  RH  093%=      5-min Rain = 0
KCA1 130724Z 12011KT 22/20 A2998 RMK A01 T02160204  RH  093%=      5-min Rain = 0
KCA1 130725Z 12013KT 22/20 A2998 RMK A01 T02160204  RH  092%=      5-min Rain = 0
KCA1 130726Z 12012KT 22/20 A2998 RMK A01 T02160203  RH  092%=      5-min Rain = 0
KCA1 130727Z 12013KT 22/20 A2998 RMK A01 T02170204  RH  092%=      5-min Rain = 0
KCA1 130728Z 12011KT 22/20 A2998 RMK A01 T02170204  RH  092%=      5-min Rain = 0
KCA1 130729Z 12010KT 22/20 A2998 RMK A01 T02170204  RH  093%=      5-min Rain = 0
KCA1 130730Z 12012KT 22/20 A2998 RMK A01 T02160204  RH  093%=      5-min Rain = 0
KCA1 130731Z 12010KT 22/20 A2998 RMK A01 T02160204  RH  093%=      5-min Rain = 0
KCA1 130732Z 12010KT 22/20 A2998 RMK A01 T02160204  RH  093%=      5-min Rain = 0
KCA1 130733Z 12013G18KT 22/20 A2998 RMK A01 T02150203  RH  093%=      5-min Rain = 0
KCA1 130734Z 12012KT 22/20 A2998 RMK A01 T02150202  RH  093%=      5-min Rain = 0
KCA1 130735Z 13013KT 22/20 A2998 RMK A01 T02150202  RH  092%=      5-min Rain = 0
KCA1 130736Z 12011KT 22/20 A2998 RMK A01 T02160202  RH  092%=      5-min Rain = 0
KCA1 130737Z 12013KT 22/20 A2998 RMK A01 T02160202  RH  091%=      5-min Rain = 0
KCA1 130738Z 12013KT 22/20 A2998 RMK A01 T02160201  RH  091%=      5-min Rain = 0
KCA1 130739Z 12012KT 22/20 A2997 RMK A01 T02160201  RH  091%=      5-min Rain = 0
KCA1 130740Z 13013KT 22/20 A2997 RMK A01 T02160200  RH  091%=      5-min Rain = 0
KCA1 130741Z 13014KT 22/20 A2997 RMK A01 T02160199  RH  090%=      5-min Rain = 0
KCA1 130742Z 13013KT 22/20 A2997 RMK A01 T02170200  RH  090%=      5-min Rain = 0
KCA1 130743Z 13014KT 22/20 A2997 RMK A01 T02160200  RH  090%=      5-min Rain = 0
KCA1 130744Z 13013KT 22/20 A2997 RMK A01 T02160199  RH  090%=      5-min Rain = 0
KCA1 130745Z 13013KT 22/20 A2997 RMK A01 T02160200  RH  090%=      5-min Rain = 0
KCA1 130746Z 13013KT 22/20 A2997 RMK A01 T02160199  RH  090%=      5-min Rain = 0
KCA1 130747Z 13012KT 22/20 A2997 RMK A01 T02160200  RH  090%=      5-min Rain = 0
KCA1 130748Z 13012KT 22/20 A2997 RMK A01 T02150200  RH  091%=      5-min Rain = 0
KCA1 130749Z 14012KT 22/20 A2997 RMK A01 T02150200  RH  091%=      5-min Rain = 0
KCA1 130750Z 13012KT 21/20 A2997 RMK A01 T02140200  RH  091%=      5-min Rain = 0
KCA1 130751Z 13012KT 21/20 A2997 RMK A01 T02140200  RH  091%=      5-min Rain = 0
KCA1 130752Z 13011KT 21/20 A2997 RMK A01 T02140199  RH  091%=      5-min Rain = 0
KCA1 130753Z 13011KT 21/20 A2997 RMK A01 T02140199  RH  091%=      5-min Rain = 0
KCA1 130754Z 13010KT 21/20 A2997 RMK A01 T02140199  RH  091%=      5-min Rain = 0
KCA1 130755Z 14009KT 21/20 A2997 RMK A01 T02130199  RH  092%=      5-min Rain = 0
KCA1 130756Z 14008KT 21/20 A2997 RMK A01 T02130200  RH  092%=      5-min Rain = 0
KCA1 130757Z 13009KT 21/20 A2997 RMK A01 T02130199  RH  092%=      5-min Rain = 0
KCA1 130758Z 14009KT 21/20 A2997 RMK A01 T02120199  RH  092%=      5-min Rain = 0
KCA1 130759Z 13008KT 21/20 A2997 RMK A01 T02120199  RH  092%=      5-min Rain = 0
KCA1 130800Z 13009KT 21/20 A2997 RMK A01 T02120199  RH  093%=      5-min Rain = 0
KCA1 130801Z 13008KT 21/20 A2997 RMK A01 T02120199  RH  093%=      5-min Rain = 0
KCA1 130802Z 13009KT 21/20 A2997 RMK A01 T02120200  RH  093%=      5-min Rain = 0
KCA1 130803Z 13008KT 21/20 A2997 RMK A01 T02120199  RH  093%=      5-min Rain = 0
KCA1 130804Z 13008KT 21/20 A2997 RMK A01 T02120200  RH  093%=      5-min Rain = 0
KCA1 130805Z 12009KT 21/20 A2997 RMK A01 T02110199  RH  093%=      5-min Rain = 0
KCA1 130806Z 12008KT 21/20 A2997 RMK A01 T02120200  RH  093%=      5-min Rain = 0
KCA1 130807Z 13008KT 21/20 A2997 RMK A01 T02110199  RH  093%=      5-min Rain = 0
KCA1 130808Z 13009KT 21/20 A2997 RMK A01 T02120199  RH  093%=      5-min Rain = 0
KCA1 130809Z 13009KT 21/20 A2997 RMK A01 T02110199  RH  093%=      5-min Rain = 0
KCA1 130810Z 13010KT 21/20 A2997 RMK A01 T02120199  RH  092%=      5-min Rain = 0
KCA1 130811Z 13008KT 21/20 A2997 RMK A01 T02120199  RH  092%=      5-min Rain = 0
KCA1 130812Z 13009KT 21/20 A2997 RMK A01 T02120199  RH  092%=      5-min Rain = 0
KCA1 130813Z 13009KT 21/20 A2997 RMK A01 T02130199  RH  092%=      5-min Rain = 0
KCA1 130814Z 13009KT 21/20 A2997 RMK A01 T02130199  RH  092%=      5-min Rain = 0
KCA1 130815Z 12010KT 21/20 A2997 RMK A01 T02130199  RH  091%=      5-min Rain = 0
KCA1 130816Z 12010KT 21/20 A2997 RMK A01 T02140199  RH  091%=      5-min Rain = 0
KCA1 130817Z 12010KT 22/20 A2997 RMK A01 T02150199  RH  091%=      5-min Rain = 0
KCA1 130818Z 13009KT 22/20 A2997 RMK A01 T02150199  RH  090%=      5-min Rain = 0
KCA1 130819Z 13010KT 22/20 A2997 RMK A01 T02150199  RH  090%=      5-min Rain = 0
KCA1 130820Z 13010KT 22/20 A2997 RMK A01 T02160199  RH  090%=      5-min Rain = 0
KCA1 130821Z 13009KT 22/20 A2997 RMK A01 T02160199  RH  090%=      5-min Rain = 0
KCA1 130822Z 13009KT 22/20 A2997 RMK A01 T02160199  RH  090%=      5-min Rain = 0
KCA1 130823Z 13008KT 22/20 A2997 RMK A01 T02160199  RH  090%=      5-min Rain = 0
KCA1 130824Z 14008KT 22/20 A2997 RMK A01 T02160199  RH  090%=      5-min Rain = 0
KCA1 130825Z 15008KT 22/20 A2997 RMK A01 T02160200  RH  090%=      5-min Rain = 0
KCA1 130826Z 15008KT 22/20 A2997 RMK A01 T02150200  RH  091%=      5-min Rain = 0
KCA1 130827Z 15007KT 22/20 A2997 RMK A01 T02150200  RH  091%=      5-min Rain = 0
KCA1 130828Z 14007KT 22/20 A2997 RMK A01 T02150200  RH  091%=      5-min Rain = 0
KCA1 130829Z 14007KT 21/20 A2997 RMK A01 T02140199  RH  091%=      5-min Rain = 0
KCA1 130830Z 14006KT 21/20 A2997 RMK A01 T02140200  RH  091%=      5-min Rain = 0
KCA1 130831Z 14007KT 21/20 A2997 RMK A01 T02140200  RH  091%=      5-min Rain = 0
KCA1 130832Z 13007KT 21/20 A2997 RMK A01 T02140199  RH  091%=      5-min Rain = 0
KCA1 130833Z 12006KT 21/20 A2997 RMK A01 T02140199  RH  091%=      5-min Rain = 0
KCA1 130834Z 12006KT 21/20 A2997 RMK A01 T02140200  RH  091%=      5-min Rain = 0
KCA1 130835Z 12007KT 21/20 A2997 RMK A01 T02140200  RH  092%=      5-min Rain = 0
KCA1 130836Z 12007KT 21/20 A2997 RMK A01 T02140199  RH  091%=      5-min Rain = 0
KCA1 130837Z 13006KT 21/20 A2997 RMK A01 T02140199  RH  091%=      5-min Rain = 0
KCA1 130838Z 13007KT 21/20 A2997 RMK A01 T02140199  RH  091%=      5-min Rain = 0
KCA1 130839Z 13005KT 22/20 A2997 RMK A01 T02150199  RH  091%=      5-min Rain = 0
KCA1 130840Z 13005KT 22/20 A2997 RMK A01 T02150200  RH  091%=      5-min Rain = 0
KCA1 130841Z 12006KT 21/20 A2997 RMK A01 T02140199  RH  091%=      5-min Rain = 0
KCA1 130842Z 12007KT 21/20 A2997 RMK A01 T02140200  RH  092%=      5-min Rain = 0
KCA1 130843Z 12007KT 21/20 A2997 RMK A01 T02140199  RH  091%=      5-min Rain = 0
KCA1 130844Z 12007KT 21/20 A2997 RMK A01 T02140199  RH  091%=      5-min Rain = 0
KCA1 130845Z 12006KT 21/20 A2997 RMK A01 T02140199  RH  091%=      5-min Rain = 0
KCA1 130846Z 12007KT 22/20 A2997 RMK A01 T02150199  RH  091%=      5-min Rain = 0
KCA1 130847Z 12007KT 21/20 A2997 RMK A01 T02140199  RH  091%=      5-min Rain = 0
KCA1 130848Z 12007KT 22/20 A2997 RMK A01 T02150199  RH  091%=      5-min Rain = 0
KCA1 130849Z 12007KT 22/20 A2997 RMK A01 T02150199  RH  091%=      5-min Rain = 0
KCA1 130850Z 11006KT 22/20 A2997 RMK A01 T02150199  RH  091%=      5-min Rain = 0
KCA1 130851Z 11007KT 21/20 A2997 RMK A01 T02140199  RH  091%=      5-min Rain = 0
KCA1 130852Z 11006KT 21/20 A2997 RMK A01 T02140199  RH  091%=      5-min Rain = 0
KCA1 130853Z 11007KT 22/20 A2997 RMK A01 T02150199  RH  091%=      5-min Rain = 0
KCA1 130854Z 11007KT 22/20 A2997 RMK A01 T02150199  RH  091%=      5-min Rain = 0
KCA1 130855Z 11007KT 21/20 A2997 RMK A01 T02140199  RH  091%=      5-min Rain = 0
KCA1 130856Z 12007KT 22/20 A2997 RMK A01 T02150199  RH  091%=      5-min Rain = 0
KCA1 130857Z 12006KT 21/20 A2997 RMK A01 T02140199  RH  091%=      5-min Rain = 0
KCA1 130858Z 12008KT 21/20 A2997 RMK A01 T02140199  RH  091%=      5-min Rain = 0
KCA1 130859Z 12007KT 22/20 A2997 RMK A01 T02150199  RH  091%=      5-min Rain = 0
KCA1 130900Z 12007KT 22/20 A2997 RMK A01 T02150198  RH  090%=      5-min Rain = 0
KCA1 130901Z 11008KT 22/20 A2997 RMK A01 T02150198  RH  090%=      5-min Rain = 0
KCA1 130902Z 11007KT 22/20 A2997 RMK A01 T02150198  RH  090%=      5-min Rain = 0
KCA1 130903Z 11008KT 22/20 A2997 RMK A01 T02150198  RH  090%=      5-min Rain = 0
KCA1 130904Z 11008KT 22/20 A2997 RMK A01 T02150198  RH  090%=      5-min Rain = 0
KCA1 130905Z 11008KT 22/20 A2997 RMK A01 T02150198  RH  090%=      5-min Rain = 0
KCA1 130906Z 11008KT 22/20 A2997 RMK A01 T02150197  RH  090%=      5-min Rain = 0
KCA1 130907Z 11007KT 22/20 A2997 RMK A01 T02150198  RH  090%=      5-min Rain = 0
KCA1 130908Z 11007KT 22/20 A2997 RMK A01 T02150198  RH  090%=      5-min Rain = 0
KCA1 130909Z 11007KT 22/20 A2997 RMK A01 T02150198  RH  090%=      5-min Rain = 0
KCA1 130910Z 11007KT 22/20 A2997 RMK A01 T02150198  RH  090%=      5-min Rain = 0
KCA1 130911Z 11006KT 22/20 A2997 RMK A01 T02150198  RH  090%=      5-min Rain = 0
KCA1 130912Z 11006KT 22/20 A2997 RMK A01 T02150198  RH  090%=      5-min Rain = 0
KCA1 130913Z 11006KT 22/20 A2997 RMK A01 T02150198  RH  090%=      5-min Rain = 0
KCA1 130914Z 11006KT 21/20 A2997 RMK A01 T02140198  RH  090%=      5-min Rain = 0
KCA1 130915Z 11007KT 21/20 A2997 RMK A01 T02140198  RH  091%=      5-min Rain = 0
KCA1 130916Z 11007KT 21/20 A2997 RMK A01 T02140198  RH  091%=      5-min Rain = 0
KCA1 130917Z 11007KT 21/20 A2997 RMK A01 T02140198  RH  091%=      5-min Rain = 0
KCA1 130918Z 11007KT 21/20 A2997 RMK A01 T02140198  RH  091%=      5-min Rain = 0
KCA1 130919Z 10006KT 21/20 A2997 RMK A01 T02130198  RH  091%=      5-min Rain = 0
KCA1 130920Z 10006KT 21/20 A2997 RMK A01 T02130198  RH  091%=      5-min Rain = 0
KCA1 130921Z 10006KT 21/20 A2997 RMK A01 T02130197  RH  091%=      5-min Rain = 0
KCA1 130922Z 11005KT 21/20 A2997 RMK A01 T02130198  RH  091%=      5-min Rain = 0
KCA1 130923Z 11005KT 21/20 A2997 RMK A01 T02120197  RH  091%=      5-min Rain = 0
KCA1 130924Z 10005KT 21/20 A2997 RMK A01 T02120197  RH  091%=      5-min Rain = 0
KCA1 130925Z 10005KT 21/20 A2997 RMK A01 T02120197  RH  091%=      5-min Rain = 0
KCA1 130926Z 10005KT 21/20 A2997 RMK A01 T02120197  RH  091%=      5-min Rain = 0
KCA1 130927Z 10004KT 21/20 A2997 RMK A01 T02120197  RH  091%=      5-min Rain = 0
KCA1 130928Z 10004KT 21/20 A2997 RMK A01 T02120197  RH  091%=      5-min Rain = 0
KCA1 130929Z 10004KT 21/20 A2997 RMK A01 T02120197  RH  091%=      5-min Rain = 0
KCA1 130930Z 10004KT 21/20 A2997 RMK A01 T02120197  RH  091%=      5-min Rain = 0
KCA1 130931Z 10003KT 21/20 A2997 RMK A01 T02110197  RH  092%=      5-min Rain = 0
KCA1 130932Z 11004KT 21/20 A2997 RMK A01 T02110197  RH  092%=      5-min Rain = 0
KCA1 130933Z 11004KT 21/20 A2997 RMK A01 T02110197  RH  092%=      5-min Rain = 0
KCA1 130934Z 11004KT 21/20 A2997 RMK A01 T02110197  RH  092%=      5-min Rain = 0
KCA1 130935Z 11004KT 21/20 A2997 RMK A01 T02100196  RH  092%=      5-min Rain = 0
KCA1 130936Z 11005KT 21/20 A2997 RMK A01 T02100197  RH  092%=      5-min Rain = 0
KCA1 130937Z 11005KT 21/20 A2997 RMK A01 T02100196  RH  092%=      5-min Rain = 0
KCA1 130938Z 10005KT 21/20 A2997 RMK A01 T02100196  RH  092%=      5-min Rain = 0
KCA1 130939Z 10005KT 21/20 A2997 RMK A01 T02100196  RH  092%=      5-min Rain = 0
KCA1 130940Z 11005KT 21/20 A2997 RMK A01 T02100197  RH  092%=      5-min Rain = 0
KCA1 130941Z 12005KT 21/20 A2997 RMK A01 T02100197  RH  092%=      5-min Rain = 0
KCA1 130942Z 12005KT 21/20 A2997 RMK A01 T02100197  RH  092%=      5-min Rain = 0
KCA1 130943Z 12005KT 21/20 A2998 RMK A01 T02090196  RH  092%=      5-min Rain = 0
KCA1 130944Z 12005KT 21/20 A2998 RMK A01 T02090197  RH  092%=      5-min Rain = 0
KCA1 130945Z 13004KT 21/20 A2998 RMK A01 T02090197  RH  092%=      5-min Rain = 0
KCA1 130946Z 12004KT 21/20 A2998 RMK A01 T02090196  RH  093%=      5-min Rain = 0
KCA1 130947Z 12005KT 21/20 A2998 RMK A01 T02080197  RH  093%=      5-min Rain = 0
KCA1 130948Z 12005KT 21/20 A2998 RMK A01 T02080197  RH  093%=      5-min Rain = 0
KCA1 130949Z 13005KT 21/20 A2998 RMK A01 T02080196  RH  093%=      5-min Rain = 0
KCA1 130950Z 13006KT 21/20 A2998 RMK A01 T02080197  RH  093%=      5-min Rain = 0
KCA1 130951Z 13005KT 21/20 A2998 RMK A01 T02080197  RH  093%=      5-min Rain = 0
KCA1 130952Z 13005KT 21/20 A2998 RMK A01 T02080196  RH  093%=      5-min Rain = 0
KCA1 130953Z 14005KT 21/20 A2998 RMK A01 T02080196  RH  093%=      5-min Rain = 0
KCA1 130954Z 13004KT 21/20 A2998 RMK A01 T02080196  RH  093%=      5-min Rain = 0
KCA1 130955Z 13004KT 21/20 A2998 RMK A01 T02080196  RH  093%=      5-min Rain = 0
KCA1 130956Z 13004KT 21/20 A2998 RMK A01 T02080196  RH  093%=      5-min Rain = 0
KCA1 130957Z 12004KT 21/20 A2998 RMK A01 T02080196  RH  093%=      5-min Rain = 0
KCA1 130958Z 12004KT 21/20 A2998 RMK A01 T02080197  RH  093%=      5-min Rain = 0
KCA1 130959Z 11004KT 21/20 A2998 RMK A01 T02080197  RH  093%=      5-min Rain = 0
KCA1 131000Z 11004KT 21/20 A2998 RMK A01 T02070196  RH  093%=      5-min Rain = 0
KCA1 131001Z 12003KT 21/20 A2998 RMK A01 T02070196  RH  093%=      5-min Rain = 0
KCA1 131002Z 13003KT 21/20 A2998 RMK A01 T02060196  RH  094%=      5-min Rain = 0
KCA1 131003Z 14003KT 21/20 A2998 RMK A01 T02060196  RH  094%=      5-min Rain = 0
KCA1 131004Z 13003KT 21/20 A2998 RMK A01 T02060196  RH  094%=      5-min Rain = 0
KCA1 131005Z 12003KT 21/20 A2998 RMK A01 T02060196  RH  094%=      5-min Rain = 0
KCA1 131006Z 11003KT 21/20 A2998 RMK A01 T02060196  RH  094%=      5-min Rain = 0
KCA1 131007Z 12003KT 21/20 A2998 RMK A01 T02060196  RH  094%=      5-min Rain = 0
KCA1 131008Z 12003KT 21/20 A2998 RMK A01 T02070196  RH  094%=      5-min Rain = 0
KCA1 131009Z 12003KT 21/20 A2998 RMK A01 T02060196  RH  094%=      5-min Rain = 0
KCA1 131010Z 12003KT 21/20 A2998 RMK A01 T02060196  RH  094%=      5-min Rain = 0
KCA1 131011Z 12003KT 21/20 A2998 RMK A01 T02060196  RH  094%=      5-min Rain = 0
KCA1 131012Z 12003KT 21/20 A2998 RMK A01 T02050196  RH  094%=      5-min Rain = 0
KCA1 131013Z 12003KT 21/20 A2998 RMK A01 T02050196  RH  094%=      5-min Rain = 0
KCA1 131014Z 12003KT 21/20 A2998 RMK A01 T02050195  RH  094%=      5-min Rain = 0
KCA1 131015Z 11003KT 21/20 A2998 RMK A01 T02050195  RH  094%=      5-min Rain = 0
KCA1 131016Z 12003KT 20/20 A2998 RMK A01 T02040195  RH  094%=      5-min Rain = 0
KCA1 131017Z 13003KT 20/20 A2998 RMK A01 T02040195  RH  095%=      5-min Rain = 0
KCA1 131018Z 12003KT 20/20 A2998 RMK A01 T02040195  RH  095%=      5-min Rain = 0
KCA1 131019Z 12003KT 20/20 A2998 RMK A01 T02030195  RH  095%=      5-min Rain = 0
KCA1 131020Z 12003KT 20/20 A2998 RMK A01 T02030195  RH  095%=      5-min Rain = 0
KCA1 131021Z 11003KT 20/20 A2998 RMK A01 T02030195  RH  095%=      5-min Rain = 0
KCA1 131022Z 12003KT 20/20 A2998 RMK A01 T02020195  RH  095%=      5-min Rain = 0
KCA1 131023Z 11003KT 20/20 A2998 RMK A01 T02020195  RH  096%=      5-min Rain = 0
KCA1 131024Z 10003KT 20/20 A2998 RMK A01 T02020195  RH  096%=      5-min Rain = 0
KCA1 131025Z 10003KT 20/19 A2998 RMK A01 T02010194  RH  096%=      5-min Rain = 0
KCA1 131026Z 11003KT 20/19 A2999 RMK A01 T02010194  RH  096%=      5-min Rain = 0
KCA1 131027Z 11003KT 20/19 A2999 RMK A01 T02000193  RH  096%=      5-min Rain = 0
KCA1 131028Z 12002KT 20/19 A2999 RMK A01 T02000194  RH  096%=      5-min Rain = 0
KCA1 131029Z 10001KT 20/19 A2999 RMK A01 T02000194  RH  096%=      5-min Rain = 0
KCA1 131030Z 05001KT 20/19 A2999 RMK A01 T01990194  RH  097%=      5-min Rain = 0
KCA1 131031Z 04002KT 20/19 A2999 RMK A01 T01990193  RH  096%=      5-min Rain = 0
KCA1 131032Z 03003KT 20/19 A2999 RMK A01 T01980193  RH  097%=      5-min Rain = 0
KCA1 131033Z 03004KT 20/19 A2999 RMK A01 T01980193  RH  097%=      5-min Rain = 0
KCA1 131034Z 03005KT 20/19 A2999 RMK A01 T01970192  RH  097%=      5-min Rain = 0
KCA1 131035Z 03005KT 20/19 A2999 RMK A01 T01960193  RH  098%=      5-min Rain = 0
KCA1 131036Z 02005KT 20/19 A2999 RMK A01 T01960193  RH  098%=      5-min Rain = 0
KCA1 131037Z 02006KT 20/19 A2999 RMK A01 T01970194  RH  098%=      5-min Rain = 0
KCA1 131038Z 03005KT 20/19 A2999 RMK A01 T01960194  RH  099%=      5-min Rain = 0
KCA1 131039Z 02005KT 20/19 A2999 RMK A01 T01960194  RH  099%=      5-min Rain = 0
KCA1 131040Z 02005KT 20/19 A2999 RMK A01 T01960194  RH  099%=      5-min Rain = 0
KCA1 131041Z 03005KT 20/19 A2999 RMK A01 T01960194  RH  099%=      5-min Rain = 0
KCA1 131042Z 03004KT 20/20 A2999 RMK A01 T01960195  RH  099%=      5-min Rain = 0
KCA1 131043Z 03004KT 20/20 A2999 RMK A01 T01960195  RH  099%=      5-min Rain = 0
KCA1 131044Z 03005KT 20/20 A2999 RMK A01 T01960195  RH  099%=      5-min Rain = 0
KCA1 131045Z 03005KT 20/19 A2999 RMK A01 T01960194  RH  099%=      5-min Rain = 0
KCA1 131046Z 03005KT 20/19 A2999 RMK A01 T01960194  RH  099%=      5-min Rain = 0
KCA1 131047Z 03005KT 20/19 A2999 RMK A01 T01960194  RH  099%=      5-min Rain = 0
KCA1 131048Z 03005KT 20/19 A2999 RMK A01 T01950193  RH  099%=      5-min Rain = 0
KCA1 131049Z 03004KT 20/19 A2999 RMK A01 T01950193  RH  099%=      5-min Rain = 0
KCA1 131050Z 03004KT 20/19 A2999 RMK A01 T01950193  RH  099%=      5-min Rain = 0
KCA1 131051Z 03003KT 19/19 A2999 RMK A01 T01940192  RH  099%=      5-min Rain = 0
KCA1 131052Z 03003KT 19/19 A2999 RMK A01 T01940192  RH  099%=      5-min Rain = 0
KCA1 131053Z 04004KT 19/19 A2999 RMK A01 T01940192  RH  099%=      5-min Rain = 0
KCA1 131054Z 03004KT 19/19 A2999 RMK A01 T01940192  RH  099%=      5-min Rain = 0
KCA1 131055Z 04005KT 19/19 A2999 RMK A01 T01940193  RH  099%=      5-min Rain = 0
KCA1 131056Z 03005KT 19/19 A2999 RMK A01 T01930192  RH  099%=      5-min Rain = 0
KCA1 131057Z 03005KT 19/19 A2999 RMK A01 T01930192  RH  099%=      5-min Rain = 0
KCA1 131058Z 03006KT 19/19 A2999 RMK A01 T01940193  RH  099%=      5-min Rain = 0
KCA1 131059Z 02005KT 19/19 A2999 RMK A01 T01930192  RH  099%=      5-min Rain = 0
KCA1 131100Z 02005KT 19/19 A2999 RMK A01 T01930192  RH  099%=      5-min Rain = 0
KCA1 131101Z 02005KT 19/19 A2999 RMK A01 T01930192  RH  099%=      5-min Rain = 0
KCA1 131102Z 01004KT 19/19 A2999 RMK A01 T01930193  RH  100%=      5-min Rain = 0
KCA1 131103Z 01005KT 19/19 A2999 RMK A01 T01930192  RH  100%=      5-min Rain = 0
KCA1 131104Z 01005KT 19/19 A2999 RMK A01 T01930192  RH  100%=      5-min Rain = 0
KCA1 131105Z 01005KT 19/19 A2999 RMK A01 T01930192  RH  100%=      5-min Rain = 0
KCA1 131106Z 01006KT 19/19 A2999 RMK A01 T01930192  RH  100%=      5-min Rain = 0
KCA1 131107Z 01006KT 19/19 A2999 RMK A01 T01930192  RH  100%=      5-min Rain = 0
KCA1 131108Z 01006KT 19/19 A30 RMK A01 T01930193  RH  100%=      5-min Rain = 0
KCA1 131109Z 01005KT 19/19 A30 RMK A01 T01930193  RH  100%=      5-min Rain = 0
KCA1 131110Z 01006KT 19/19 A30 RMK A01 T01930193  RH  100%=      5-min Rain = 0
KCA1 131111Z 01006KT 19/19 A30 RMK A01 T01920193  RH  100%=      5-min Rain = 0
KCA1 131112Z 01005KT 19/19 A30 RMK A01 T01930193  RH  100%=      5-min Rain = 0
KCA1 131113Z 01005KT 19/19 A30 RMK A01 T01930193  RH  100%=      5-min Rain = 0
KCA1 131114Z 01005KT 19/19 A30 RMK A01 T01930193  RH  100%=      5-min Rain = 0
KCA1 131115Z 01005KT 19/19 A30 RMK A01 T01930193  RH  100%=      5-min Rain = 0
KCA1 131116Z 01006KT 19/19 A30 RMK A01 T01930193  RH  100%=      5-min Rain = 0
KCA1 131117Z 01006KT 19/19 A30 RMK A01 T01930193  RH  100%=      5-min Rain = 0
KCA1 131118Z 01006KT 19/19 A30 RMK A01 T01930193  RH  100%=      5-min Rain = 0
KCA1 131119Z 01006KT 19/19 A30 RMK A01 T01930193  RH  100%=      5-min Rain = 0
KCA1 131120Z 01005KT 19/19 A30 RMK A01 T01930193  RH  100%=      5-min Rain = 0
KCA1 131121Z 01005KT 19/19 A30 RMK A01 T01930193  RH  100%=      5-min Rain = 0
KCA1 131122Z 01005KT 19/19 A30 RMK A01 T01930193  RH  100%=      5-min Rain = 0
KCA1 131123Z 01006KT 19/19 A30 RMK A01 T01930193  RH  100%=      5-min Rain = 0
KCA1 131124Z 01006KT 19/19 A30 RMK A01 T01930192  RH  100%=      5-min Rain = 0
KCA1 131125Z 01006KT 19/19 A30 RMK A01 T01930193  RH  100%=      5-min Rain = 0
KCA1 131126Z 01006KT 19/19 A30 RMK A01 T01930192  RH  100%=      5-min Rain = 0
KCA1 131127Z 01006KT 19/19 A30 RMK A01 T01930192  RH  099%=      5-min Rain = 0
KCA1 131128Z 01007KT 19/19 A30 RMK A01 T01930192  RH  099%=      5-min Rain = 0
KCA1 131129Z 01007KT 19/19 A30 RMK A01 T01930192  RH  099%=      5-min Rain = 0
KCA1 131130Z 00007KT 19/19 A30 RMK A01 T01930193  RH  100%=      5-min Rain = 0
KCA1 131131Z 01006KT 19/19 A30 RMK A01 T01930193  RH  100%=      5-min Rain = 0
KCA1 131132Z 01006KT 19/19 A30 RMK A01 T01930193  RH  100%=      5-min Rain = 0
KCA1 131133Z 00006KT 19/19 A30 RMK A01 T01930192  RH  100%=      5-min Rain = 0
KCA1 131134Z 00006KT 19/19 A30 RMK A01 T01930193  RH  100%=      5-min Rain = 0
KCA1 131135Z 00006KT 19/19 A30 RMK A01 T01930193  RH  100%=      5-min Rain = 0
KCA1 131136Z 01005KT 19/19 A3001 RMK A01 T01930192  RH  100%=      5-min Rain = 0
KCA1 131137Z 01005KT 19/19 A3001 RMK A01 T01930193  RH  100%=      5-min Rain = 0
KCA1 131138Z 01005KT 19/19 A3001 RMK A01 T01940193  RH  099%=      5-min Rain = 0
KCA1 131139Z 00005KT 19/19 A3001 RMK A01 T01940193  RH  099%=      5-min Rain = 0
KCA1 131140Z 00005KT 19/19 A3001 RMK A01 T01940193  RH  099%=      5-min Rain = 0
KCA1 131141Z 01004KT 19/19 A3001 RMK A01 T01940193  RH  099%=      5-min Rain = 0
KCA1 131142Z 01005KT 19/19 A3001 RMK A01 T01940192  RH  099%=      5-min Rain = 0
KCA1 131143Z 01004KT 19/19 A3001 RMK A01 T01940192  RH  099%=      5-min Rain = 0
KCA1 131144Z 01006KT 19/19 A3001 RMK A01 T01940192  RH  099%=      5-min Rain = 0
KCA1 131145Z 01005KT 19/19 A3001 RMK A01 T01940192  RH  099%=      5-min Rain = 0
KCA1 131146Z 01005KT 19/19 A3001 RMK A01 T01940192  RH  099%=      5-min Rain = 0
KCA1 131147Z 01005KT 19/19 A3001 RMK A01 T01930191  RH  099%=      5-min Rain = 0
KCA1 131148Z 01005KT 19/19 A3001 RMK A01 T01930191  RH  099%=      5-min Rain = 0
KCA1 131149Z 01006KT 19/19 A3001 RMK A01 T01930191  RH  099%=      5-min Rain = 0
KCA1 131150Z 01006KT 19/19 A3001 RMK A01 T01930191  RH  099%=      5-min Rain = 0
KCA1 131151Z 01006KT 19/19 A3001 RMK A01 T01930192  RH  099%=      5-min Rain = 0
KCA1 131152Z 01006KT 19/19 A3001 RMK A01 T01930192  RH  099%=      5-min Rain = 0
KCA1 131153Z 01006KT 19/19 A3001 RMK A01 T01930192  RH  099%=      5-min Rain = 0
KCA1 131154Z 01006KT 19/19 A3001 RMK A01 T01930191  RH  099%=      5-min Rain = 0
KCA1 131155Z 01006KT 19/19 A3001 RMK A01 T01930191  RH  099%=      5-min Rain = 0
KCA1 131156Z 02005KT 19/19 A3001 RMK A01 T01930192  RH  099%=      5-min Rain = 0
KCA1 131157Z 02005KT 19/19 A3001 RMK A01 T01930191  RH  099%=      5-min Rain = 0
KCA1 131158Z 02005KT 19/19 A3001 RMK A01 T01930191  RH  099%=      5-min Rain = 0
KCA1 131159Z 02005KT 19/19 A3001 RMK A01 T01930191  RH  099%=      5-min Rain = 0
KCA1 131200Z 02005KT 19/19 A3001 RMK A01 T01930191  RH  099%=      5-min Rain = 0
KCA1 131201Z 02005KT 19/19 A3001 RMK A01 T01930190  RH  099%=      5-min Rain = 0
KCA1 131202Z 02005KT 19/19 A3001 RMK A01 T01930191  RH  099%=      5-min Rain = 0
KCA1 131203Z 02005KT 19/19 A3001 RMK A01 T01930190  RH  099%=      5-min Rain = 0
KCA1 131204Z 02005KT 19/19 A3001 RMK A01 T01920190  RH  099%=      5-min Rain = 0
KCA1 131205Z 02005KT 19/19 A3001 RMK A01 T01920190  RH  099%=      5-min Rain = 0
KCA1 131206Z 02005KT 19/19 A3001 RMK A01 T01920190  RH  099%=      5-min Rain = 0
KCA1 131207Z 02005KT 19/19 A3001 RMK A01 T01920189  RH  099%=      5-min Rain = 0
KCA1 131208Z 02005KT 19/19 A3001 RMK A01 T01920190  RH  099%=      5-min Rain = 0
KCA1 131209Z 03006KT 19/19 A3001 RMK A01 T01910190  RH  099%=      5-min Rain = 0
KCA1 131210Z 03006KT 19/19 A3001 RMK A01 T01910190  RH  099%=      5-min Rain = 0
KCA1 131211Z 02006KT 19/19 A3001 RMK A01 T01910190  RH  099%=      5-min Rain = 0
KCA1 131212Z 03006KT 19/19 A3002 RMK A01 T01910190  RH  099%=      5-min Rain = 0
KCA1 131213Z 02005KT 19/19 A3002 RMK A01 T01910189  RH  099%=      5-min Rain = 0
KCA1 131214Z 02005KT 19/19 A3002 RMK A01 T01920190  RH  099%=      5-min Rain = 0
KCA1 131215Z 02006KT 19/19 A3002 RMK A01 T01920189  RH  099%=      5-min Rain = 0
KCA1 131216Z 02006KT 19/19 A3002 RMK A01 T01920190  RH  098%=      5-min Rain = 0
KCA1 131217Z 01006KT 19/19 A3002 RMK A01 T01920189  RH  098%=      5-min Rain = 0
KCA1 131218Z 01006KT 19/19 A3002 RMK A01 T01920189  RH  098%=      5-min Rain = 0
KCA1 131219Z 01006KT 19/19 A3002 RMK A01 T01920189  RH  098%=      5-min Rain = 0
KCA1 131220Z 01006KT 19/19 A3002 RMK A01 T01920189  RH  098%=      5-min Rain = 0
KCA1 131221Z 01006KT 19/19 A3002 RMK A01 T01920189  RH  098%=      5-min Rain = 0
KCA1 131222Z 02006KT 19/19 A3002 RMK A01 T01930190  RH  098%=      5-min Rain = 0
KCA1 131223Z 02006KT 19/19 A3002 RMK A01 T01940190  RH  098%=      5-min Rain = 0
KCA1 131224Z 02006KT 19/19 A3002 RMK A01 T01940190  RH  097%=      5-min Rain = 0
KCA1 131225Z 02007KT 20/19 A3002 RMK A01 T01950190  RH  097%=      5-min Rain = 0
KCA1 131226Z 02006KT 20/19 A3002 RMK A01 T01950189  RH  096%=      5-min Rain = 0
KCA1 131227Z 02007KT 20/19 A3002 RMK A01 T01950189  RH  096%=      5-min Rain = 0
KCA1 131228Z 02007KT 20/19 A3002 RMK A01 T01950189  RH  096%=      5-min Rain = 0
KCA1 131229Z 02007KT 20/19 A3002 RMK A01 T01960189  RH  096%=      5-min Rain = 0
KCA1 131230Z 02007KT 20/19 A3002 RMK A01 T01960189  RH  096%=      5-min Rain = 0
KCA1 131231Z 02007KT 20/19 A3002 RMK A01 T01960189  RH  096%=      5-min Rain = 0
KCA1 131232Z 02007KT 20/19 A3002 RMK A01 T01960189  RH  096%=      5-min Rain = 0
KCA1 131233Z 02007KT 20/19 A3002 RMK A01 T01960189  RH  095%=      5-min Rain = 0
KCA1 131234Z 03006KT 20/19 A3002 RMK A01 T01970189  RH  095%=      5-min Rain = 0
KCA1 131235Z 03006KT 20/19 A3002 RMK A01 T01970189  RH  095%=      5-min Rain = 0
KCA1 131236Z 03006KT 20/19 A3003 RMK A01 T01970190  RH  095%=      5-min Rain = 0
KCA1 131237Z 03007KT 20/19 A3003 RMK A01 T01970190  RH  095%=      5-min Rain = 0
KCA1 131238Z 03007KT 20/19 A3002 RMK A01 T01970190  RH  095%=      5-min Rain = 0
KCA1 131239Z 03006KT 20/19 A3003 RMK A01 T01980190  RH  095%=      5-min Rain = 0
KCA1 131240Z 03006KT 20/19 A3003 RMK A01 T01980190  RH  095%=      5-min Rain = 0
KCA1 131241Z 03006KT 20/19 A3003 RMK A01 T01980190  RH  095%=      5-min Rain = 0
KCA1 131242Z 03006KT 20/19 A3003 RMK A01 T01980190  RH  095%=      5-min Rain = 0
KCA1 131243Z 03006KT 20/19 A3003 RMK A01 T01990190  RH  095%=      5-min Rain = 0
KCA1 131244Z 03006KT 20/19 A3003 RMK A01 T01990190  RH  095%=      5-min Rain = 0
KCA1 131245Z 03006KT 20/19 A3003 RMK A01 T01990190  RH  094%=      5-min Rain = 0
KCA1 131246Z 03005KT 20/19 A3003 RMK A01 T02000191  RH  094%=      5-min Rain = 0
KCA1 131247Z 03006KT 20/19 A3003 RMK A01 T02000191  RH  094%=      5-min Rain = 0
KCA1 131248Z 03005KT 20/19 A3003 RMK A01 T02010190  RH  094%=      5-min Rain = 0
KCA1 131249Z 04005KT 20/19 A3003 RMK A01 T02010190  RH  093%=      5-min Rain = 0
KCA1 131250Z 04005KT 20/19 A3003 RMK A01 T02020191  RH  093%=      5-min Rain = 0
KCA1 131251Z 03005KT 20/19 A3003 RMK A01 T02030191  RH  093%=      5-min Rain = 0
KCA1 131252Z 03005KT 20/19 A3003 RMK A01 T02030191  RH  093%=      5-min Rain = 0
KCA1 131253Z 03004KT 20/19 A3003 RMK A01 T02040192  RH  093%=      5-min Rain = 0
KCA1 131254Z 03005KT 21/19 A3003 RMK A01 T02050192  RH  093%=      5-min Rain = 0
KCA1 131255Z 03005KT 21/19 A3003 RMK A01 T02050193  RH  093%=      5-min Rain = 0
KCA1 131256Z 03005KT 21/19 A3003 RMK A01 T02050193  RH  092%=      5-min Rain = 0
KCA1 131257Z 03005KT 21/19 A3003 RMK A01 T02060194  RH  092%=      5-min Rain = 0
KCA1 131258Z 03005KT 21/19 A3003 RMK A01 T02070194  RH  092%=      5-min Rain = 0
KCA1 131259Z 03005KT 21/19 A3003 RMK A01 T02080194  RH  092%=      5-min Rain = 0
KCA1 131300Z 02005KT 21/19 A3003 RMK A01 T02080194  RH  092%=      5-min Rain = 0
KCA1 131301Z 03005KT 21/19 A3003 RMK A01 T02090194  RH  091%=      5-min Rain = 0
KCA1 131302Z 03005KT 21/19 A3003 RMK A01 T02090194  RH  091%=      5-min Rain = 0
KCA1 131303Z 03004KT 21/20 A3003 RMK A01 T02100195  RH  091%=      5-min Rain = 0
KCA1 131304Z 03005KT 21/19 A3004 RMK A01 T02100194  RH  091%=      5-min Rain = 0
KCA1 131305Z 02005KT 21/19 A3004 RMK A01 T02110194  RH  090%=      5-min Rain = 0
KCA1 131306Z 02004KT 21/20 A3004 RMK A01 T02120195  RH  090%=      5-min Rain = 0
KCA1 131307Z 02004KT 21/19 A3004 RMK A01 T02130194  RH  089%=      5-min Rain = 0
KCA1 131308Z 02004KT 21/19 A3004 RMK A01 T02130194  RH  089%=      5-min Rain = 0
KCA1 131309Z 02005KT 21/19 A3004 RMK A01 T02140193  RH  088%=      5-min Rain = 0
KCA1 131310Z 02003KT 21/19 A3004 RMK A01 T02140194  RH  089%=      5-min Rain = 0
KCA1 131311Z 01005KT 22/20 A3004 RMK A01 T02150195  RH  089%=      5-min Rain = 0
KCA1 131312Z 01005KT 22/19 A3004 RMK A01 T02150193  RH  088%=      5-min Rain = 0
KCA1 131313Z 01005KT 22/19 A3004 RMK A01 T02150193  RH  087%=      5-min Rain = 0
KCA1 131314Z 01005KT 22/19 A3004 RMK A01 T02160193  RH  087%=      5-min Rain = 0
KCA1 131315Z 01005KT 22/19 A3004 RMK A01 T02160193  RH  087%=      5-min Rain = 0
KCA1 131316Z 01005KT 22/19 A3004 RMK A01 T02160194  RH  087%=      5-min Rain = 0
KCA1 131317Z 00005KT 22/19 A3004 RMK A01 T02170194  RH  087%=      5-min Rain = 0
KCA1 131318Z 01005KT 22/20 A3004 RMK A01 T02180195  RH  087%=      5-min Rain = 0
KCA1 131319Z 01005KT 22/20 A3004 RMK A01 T02180195  RH  087%=      5-min Rain = 0
KCA1 131320Z 36005KT 22/19 A3004 RMK A01 T02190194  RH  086%=      5-min Rain = 0
KCA1 131321Z 00004KT 22/20 A3004 RMK A01 T02190195  RH  086%=      5-min Rain = 0
KCA1 131322Z 36006KT 22/20 A3004 RMK A01 T02200195  RH  085%=      5-min Rain = 0
KCA1 131323Z 35005KT 22/19 A3004 RMK A01 T02210194  RH  084%=      5-min Rain = 0
KCA1 131324Z 01004KT 22/20 A3004 RMK A01 T02210195  RH  085%=      5-min Rain = 0
KCA1 131325Z 00005KT 22/20 A3005 RMK A01 T02220195  RH  085%=      5-min Rain = 0
KCA1 131326Z 01005KT 22/19 A3005 RMK A01 T02220194  RH  084%=      5-min Rain = 0
KCA1 131327Z 00005KT 22/19 A3005 RMK A01 T02230194  RH  084%=      5-min Rain = 0
KCA1 131328Z 01005KT 22/20 A3005 RMK A01 T02230195  RH  084%=      5-min Rain = 0
KCA1 131329Z 01006KT 22/20 A3005 RMK A01 T02240196  RH  084%=      5-min Rain = 0
KCA1 131330Z 02005KT 23/19 A3005 RMK A01 T02250194  RH  083%=      5-min Rain = 0
KCA1 131331Z 02006KT 23/20 A3005 RMK A01 T02250195  RH  083%=      5-min Rain = 0
KCA1 131332Z 02006KT 23/20 A3005 RMK A01 T02250195  RH  083%=      5-min Rain = 0
KCA1 131333Z 02006KT 23/20 A3005 RMK A01 T02250195  RH  083%=      5-min Rain = 0
KCA1 131334Z 02006KT 23/20 A3005 RMK A01 T02250195  RH  083%=      5-min Rain = 0
KCA1 131335Z 02005KT 23/20 A3005 RMK A01 T02250195  RH  083%=      5-min Rain = 0
KCA1 131336Z 03005KT 23/20 A3005 RMK A01 T02260195  RH  083%=      5-min Rain = 0
KCA1 131337Z 03004KT 23/19 A3005 RMK A01 T02260194  RH  082%=      5-min Rain = 0
KCA1 131338Z 02004KT 23/20 A3005 RMK A01 T02260196  RH  083%=      5-min Rain = 0
KCA1 131339Z 02004KT 23/20 A3005 RMK A01 T02280198  RH  083%=      5-min Rain = 0
KCA1 131340Z 03004KT 23/20 A3005 RMK A01 T02290199  RH  083%=      5-min Rain = 0
KCA1 131341Z 02005KT 23/20 A3005 RMK A01 T02300198  RH  082%=      5-min Rain = 0
KCA1 131342Z 03005KT 23/19 A3005 RMK A01 T02310194  RH  080%=      5-min Rain = 0
KCA1 131343Z 02005KT 23/19 A3005 RMK A01 T02310194  RH  080%=      5-min Rain = 0
KCA1 131344Z 02004KT 23/20 A3005 RMK A01 T02310195  RH  080%=      5-min Rain = 0
KCA1 131345Z 02005KT 23/19 A3005 RMK A01 T02310194  RH  080%=      5-min Rain = 0
KCA1 131346Z 02005KT 23/19 A3005 RMK A01 T02310192  RH  079%=      5-min Rain = 0
KCA1 131347Z 01005KT 23/19 A3005 RMK A01 T02310193  RH  079%=      5-min Rain = 0
KCA1 131348Z 01004KT 23/19 A3005 RMK A01 T02320193  RH  079%=      5-min Rain = 0
KCA1 131349Z 02005KT 23/19 A3005 RMK A01 T02320194  RH  079%=      5-min Rain = 0
KCA1 131350Z 02004KT 23/19 A3005 RMK A01 T02320194  RH  079%=      5-min Rain = 0
KCA1 131351Z 03004KT 23/19 A3005 RMK A01 T02320193  RH  078%=      5-min Rain = 0
KCA1 131352Z 03003KT 23/19 A3005 RMK A01 T02320194  RH  079%=      5-min Rain = 0
KCA1 131353Z 04004KT 23/20 A3005 RMK A01 T02340195  RH  079%=      5-min Rain = 0
KCA1 131354Z 03003KT 24/20 A3005 RMK A01 T02350197  RH  079%=      5-min Rain = 0
KCA1 131355Z 03004KT 24/20 A3005 RMK A01 T02370197  RH  078%=      5-min Rain = 0
KCA1 131356Z 03004KT 24/20 A3005 RMK A01 T02380197  RH  078%=      5-min Rain = 0
KCA1 131357Z 02004KT 24/19 A3005 RMK A01 T02380194  RH  077%=      5-min Rain = 0
KCA1 131358Z 02003KT 24/20 A3005 RMK A01 T02380196  RH  077%=      5-min Rain = 0
KCA1 131359Z 02003KT 24/19 A3005 RMK A01 T02380194  RH  076%=      5-min Rain = 0
KCA1 131400Z 03003KT 24/20 A3005 RMK A01 T02390195  RH  077%=      5-min Rain = 0
KCA1 131401Z 04003KT 24/20 A3005 RMK A01 T02390198  RH  078%=      5-min Rain = 0
KCA1 131402Z 05004KT 24/20 A3005 RMK A01 T02400196  RH  076%=      5-min Rain = 0
KCA1 131403Z 03003KT 24/19 A3005 RMK A01 T02410194  RH  075%=      5-min Rain = 0
KCA1 131404Z 04003KT 24/19 A3005 RMK A01 T02410194  RH  075%=      5-min Rain = 0
KCA1 131405Z 04002KT 24/19 A3005 RMK A01 T02400192  RH  074%=      5-min Rain = 0
KCA1 131406Z 05001KT 24/19 A3005 RMK A01 T02410190  RH  073%=      5-min Rain = 0
KCA1 131407Z 04002KT 24/19 A3005 RMK A01 T02410193  RH  074%=      5-min Rain = 0
KCA1 131408Z 02002KT 24/19 A3006 RMK A01 T02430194  RH  074%=      5-min Rain = 0
KCA1 131409Z 35002KT 24/19 A3005 RMK A01 T02430194  RH  074%=      5-min Rain = 0
KCA1 131410Z 36003KT 24/19 A3005 RMK A01 T02440193  RH  073%=      5-min Rain = 0
KCA1 131411Z 02002KT 24/19 A3005 RMK A01 T02440194  RH  074%=      5-min Rain = 0
KCA1 131412Z 01001KT 24/19 A3005 RMK A01 T02440194  RH  074%=      5-min Rain = 0
KCA1 131413Z 32003KT 25/20 A3005 RMK A01 T02450196  RH  074%=      5-min Rain = 0
KCA1 131414Z 32002KT 25/19 A3005 RMK A01 T02460194  RH  073%=      5-min Rain = 0
KCA1 131415Z 36002KT 25/20 A3006 RMK A01 T02460195  RH  073%=      5-min Rain = 0
KCA1 131416Z 01002KT 25/19 A3006 RMK A01 T02460191  RH  072%=      5-min Rain = 0
KCA1 131417Z 34002KT 25/19 A3006 RMK A01 T02450192  RH  073%=      5-min Rain = 0
KCA1 131418Z 02002KT 25/19 A3006 RMK A01 T02450194  RH  073%=      5-min Rain = 0
KCA1 131419Z 01002KT 25/19 A3006 RMK A01 T02450194  RH  073%=      5-min Rain = 0
KCA1 131420Z 31002KT 25/20 A3006 RMK A01 T02460196  RH  074%=      5-min Rain = 0
KCA1 131421Z 32003KT 25/19 A3006 RMK A01 T02470194  RH  072%=      5-min Rain = 0
KCA1 131422Z 32004KT 25/19 A3006 RMK A01 T02480193  RH  072%=      5-min Rain = 0
KCA1 131423Z 31003KT 25/20 A3006 RMK A01 T02470195  RH  073%=      5-min Rain = 0
KCA1 131424Z 31003KT 25/19 A3006 RMK A01 T02470193  RH  072%=      5-min Rain = 0
KCA1 131425Z 31002KT 25/19 A3006 RMK A01 T02460192  RH  072%=      5-min Rain = 0
KCA1 131426Z 33001KT 25/19 A3006 RMK A01 T02450190  RH  071%=      5-min Rain = 0
KCA1 131427Z 29001KT 24/19 A3006 RMK A01 T02440192  RH  073%=      5-min Rain = 0
KCA1 131428Z 27001KT 25/19 A3006 RMK A01 T02460193  RH  072%=      5-min Rain = 0
KCA1 131429Z 26002KT 25/20 A3006 RMK A01 T02480196  RH  073%=      5-min Rain = 0
KCA1 131430Z 26001KT 25/19 A3006 RMK A01 T02490194  RH  072%=      5-min Rain = 0
KCA1 131431Z 20001KT 25/20 A3006 RMK A01 T02500195  RH  071%=      5-min Rain = 0
KCA1 131432Z 29002KT 25/20 A3006 RMK A01 T02500196  RH  072%=      5-min Rain = 0
KCA1 131433Z 30001KT 25/20 A3006 RMK A01 T02510195  RH  071%=      5-min Rain = 0
KCA1 131434Z 33001KT 25/20 A3006 RMK A01 T02520195  RH  070%=      5-min Rain = 0
KCA1 131435Z 28002KT 25/20 A3006 RMK A01 T02540197  RH  071%=      5-min Rain = 0
KCA1 131436Z 28003KT 25/20 A3006 RMK A01 T02540195  RH  070%=      5-min Rain = 0
KCA1 131437Z 29003KT 25/19 A3006 RMK A01 T02530193  RH  069%=      5-min Rain = 0
KCA1 131438Z 29003KT 25/19 A3006 RMK A01 T02510193  RH  070%=      5-min Rain = 0
KCA1 131439Z 30003KT 25/19 A3006 RMK A01 T02500192  RH  070%=      5-min Rain = 0
KCA1 131440Z 26002KT 25/19 A3006 RMK A01 T02490194  RH  071%=      5-min Rain = 0
KCA1 131441Z 25005KT 25/20 A3006 RMK A01 T02500196  RH  072%=      5-min Rain = 0
KCA1 131442Z 25003KT 25/20 A3006 RMK A01 T02500195  RH  071%=      5-min Rain = 0
KCA1 131443Z 25003KT 25/20 A3006 RMK A01 T02510195  RH  071%=      5-min Rain = 0
KCA1 131444Z 25003KT 25/20 A3006 RMK A01 T02510195  RH  071%=      5-min Rain = 0
KCA1 131445Z 25003KT 25/20 A3006 RMK A01 T02520195  RH  071%=      5-min Rain = 0
KCA1 131446Z 23001KT 25/19 A3006 RMK A01 T02520192  RH  069%=      5-min Rain = 0
KCA1 131447Z 20002KT 25/19 A3006 RMK A01 T02510193  RH  070%=      5-min Rain = 0
KCA1 131448Z 23003KT 25/20 A3006 RMK A01 T02510195  RH  071%=      5-min Rain = 0
KCA1 131449Z 23002KT 25/19 A3006 RMK A01 T02510194  RH  070%=      5-min Rain = 0
KCA1 131450Z 24001KT 25/20 A3006 RMK A01 T02520195  RH  071%=      5-min Rain = 0
KCA1 131451Z 19001KT 25/19 A3006 RMK A01 T02520193  RH  070%=      5-min Rain = 0
KCA1 131452Z 19001KT 25/19 A3006 RMK A01 T02520193  RH  070%=      5-min Rain = 0
KCA1 131453Z 18000KT 25/19 A3006 RMK A01 T02520193  RH  070%=      5-min Rain = 0
KCA1 131454Z 00000KT 25/19 A3006 RMK A01 T02530193  RH  069%=      5-min Rain = 0
KCA1 131455Z 35000KT 26/19 A3006 RMK A01 T02550193  RH  069%=      5-min Rain = 0
KCA1 131456Z 35000KT 26/20 A3006 RMK A01 T02560196  RH  069%=      5-min Rain = 0
KCA1 131457Z 32001KT 26/20 A3006 RMK A01 T02570197  RH  069%=      5-min Rain = 0
KCA1 131458Z 01001KT 26/20 A3006 RMK A01 T02600198  RH  069%=      5-min Rain = 0
KCA1 131459Z 33002KT 26/20 A3006 RMK A01 T02620195  RH  067%=      5-min Rain = 0
KCA1 131500Z 31000KT 26/19 A3006 RMK A01 T02610194  RH  066%=      5-min Rain = 0
KCA1 131501Z 25001KT 26/20 A3006 RMK A01 T02620196  RH  067%=      5-min Rain = 0
KCA1 131502Z 25001KT 26/19 A3006 RMK A01 T02620194  RH  066%=      5-min Rain = 0
KCA1 131503Z 06000KT 26/20 A3006 RMK A01 T02630197  RH  067%=      5-min Rain = 0
KCA1 131504Z 03002KT 26/20 A3006 RMK A01 T02640200  RH  068%=      5-min Rain = 0
KCA1 131505Z 04001KT 27/20 A3006 RMK A01 T02650198  RH  067%=      5-min Rain = 0
KCA1 131506Z 03002KT 27/20 A3006 RMK A01 T02670198  RH  066%=      5-min Rain = 0
KCA1 131507Z 05002KT 27/20 A3006 RMK A01 T02650196  RH  066%=      5-min Rain = 0
KCA1 131508Z 04002KT 26/20 A3006 RMK A01 T02630195  RH  066%=      5-min Rain = 0
KCA1 131509Z 04002KT 26/20 A3006 RMK A01 T02620196  RH  067%=      5-min Rain = 0
KCA1 131510Z 04003KT 26/20 A3006 RMK A01 T02620197  RH  068%=      5-min Rain = 0
KCA1 131511Z 03002KT 26/20 A3006 RMK A01 T02620196  RH  067%=      5-min Rain = 0
KCA1 131512Z 02003KT 26/20 A3006 RMK A01 T02620196  RH  067%=      5-min Rain = 0
KCA1 131513Z 01002KT 26/20 A3006 RMK A01 T02610196  RH  067%=      5-min Rain = 0
KCA1 131514Z 01002KT 26/20 A3006 RMK A01 T02600198  RH  068%=      5-min Rain = 0
KCA1 131515Z 01002KT 26/20 A3006 RMK A01 T02610199  RH  069%=      5-min Rain = 0
KCA1 131516Z 03001KT 26/20 A3006 RMK A01 T02620199  RH  068%=      5-min Rain = 0
KCA1 131517Z 21001KT 26/20 A3006 RMK A01 T02640200  RH  068%=      5-min Rain = 0
KCA1 131518Z 20004KT 27/20 A3007 RMK A01 T02650201  RH  068%=      5-min Rain = 0
KCA1 131519Z 19002KT 27/20 A3007 RMK A01 T02650198  RH  067%=      5-min Rain = 0
KCA1 131520Z 12002KT 26/20 A3007 RMK A01 T02640199  RH  067%=      5-min Rain = 0
KCA1 131521Z 10001KT 26/20 A3007 RMK A01 T02640200  RH  068%=      5-min Rain = 0
KCA1 131522Z 15003KT 27/20 A3007 RMK A01 T02650201  RH  068%=      5-min Rain = 0
KCA1 131523Z 19004KT 27/21 A3007 RMK A01 T02670205  RH  069%=      5-min Rain = 0
KCA1 131524Z 20004KT 27/20 A3007 RMK A01 T02690204  RH  067%=      5-min Rain = 0
KCA1 131525Z 19002KT 27/20 A3007 RMK A01 T02700203  RH  067%=      5-min Rain = 0
KCA1 131526Z 16002KT 27/20 A3007 RMK A01 T02710203  RH  066%=      5-min Rain = 0
KCA1 131527Z 16003KT 27/21 A3007 RMK A01 T02720205  RH  067%=      5-min Rain = 0
KCA1 131528Z 14001KT 27/20 A3007 RMK A01 T02720203  RH  066%=      5-min Rain = 0
KCA1 131529Z 13002KT 27/20 A3007 RMK A01 T02720202  RH  065%=      5-min Rain = 0
KCA1 131530Z 12003KT 27/20 A3007 RMK A01 T02730203  RH  066%=      5-min Rain = 0
KCA1 131531Z 09004KT 27/20 A3007 RMK A01 T02740201  RH  064%=      5-min Rain = 0
KCA1 131532Z 08003KT 27/20 A3007 RMK A01 T02720201  RH  065%=      5-min Rain = 0
KCA1 131533Z 06003KT 27/20 A3007 RMK A01 T02710200  RH  065%=      5-min Rain = 0
KCA1 131534Z 06002KT 27/20 A3007 RMK A01 T02690198  RH  065%=      5-min Rain = 0
KCA1 131535Z 10001KT 27/20 A3007 RMK A01 T02680197  RH  065%=      5-min Rain = 0
KCA1 131536Z 10000KT 27/20 A3007 RMK A01 T02680197  RH  065%=      5-min Rain = 0
KCA1 131537Z 08000KT 27/20 A3007 RMK A01 T02680197  RH  065%=      5-min Rain = 0
KCA1 131538Z 09000KT 27/20 A3007 RMK A01 T02690201  RH  066%=      5-min Rain = 0
KCA1 131539Z 00000KT 27/20 A3007 RMK A01 T02720204  RH  066%=      5-min Rain = 0
KCA1 131540Z 05001KT 27/20 A3007 RMK A01 T02740202  RH  064%=      5-min Rain = 0
KCA1 131541Z 10003KT 28/20 A3007 RMK A01 T02760202  RH  064%=      5-min Rain = 0
KCA1 131542Z 12002KT 28/20 A3007 RMK A01 T02760202  RH  064%=      5-min Rain = 0
KCA1 131543Z 12001KT 28/20 A3007 RMK A01 T02760200  RH  063%=      5-min Rain = 0
KCA1 131544Z 12000KT 28/20 A3007 RMK A01 T02750202  RH  064%=      5-min Rain = 0
KCA1 131545Z 09001KT 28/20 A3007 RMK A01 T02760204  RH  065%=      5-min Rain = 0
KCA1 131546Z 07004KT 28/20 A3007 RMK A01 T02770203  RH  064%=      5-min Rain = 0
KCA1 131547Z 07004KT 28/20 A3007 RMK A01 T02780204  RH  064%=      5-min Rain = 0
KCA1 131548Z 07003KT 28/20 A3007 RMK A01 T02780201  RH  063%=      5-min Rain = 0
KCA1 131549Z 05003KT 28/20 A3007 RMK A01 T02760200  RH  063%=      5-min Rain = 0
KCA1 131550Z 03004KT 28/20 A3007 RMK A01 T02760200  RH  064%=      5-min Rain = 0
KCA1 131551Z 03002KT 27/20 A3007 RMK A01 T02730198  RH  063%=      5-min Rain = 0
KCA1 131552Z 16001KT 27/20 A3007 RMK A01 T02720201  RH  065%=      5-min Rain = 0
KCA1 131553Z 14002KT 27/20 A3007 RMK A01 T02730200  RH  064%=      5-min Rain = 0
KCA1 131554Z 12001KT 27/20 A3007 RMK A01 T02730199  RH  064%=      5-min Rain = 0
KCA1 131555Z 08002KT 28/20 A3007 RMK A01 T02750202  RH  065%=      5-min Rain = 0
KCA1 131556Z 10005KT 28/20 A3007 RMK A01 T02770202  RH  064%=      5-min Rain = 0
KCA1 131557Z 07005KT 28/20 A3008 RMK A01 T02770203  RH  064%=      5-min Rain = 0
KCA1 131558Z 08006KT 28/20 A3008 RMK A01 T02780203  RH  064%=      5-min Rain = 0
KCA1 131559Z 09005KT 28/20 A3008 RMK A01 T02770201  RH  063%=      5-min Rain = 0
KCA1 131600Z 08004KT 28/20 A3008 RMK A01 T02760201  RH  064%=      5-min Rain = 0
KCA1 131601Z 07003KT 28/20 A3008 RMK A01 T02750199  RH  063%=      5-min Rain = 0
KCA1 131602Z 06004KT 28/20 A3008 RMK A01 T02750199  RH  063%=      5-min Rain = 0
KCA1 131603Z 08006KT 28/20 A3008 RMK A01 T02760201  RH  064%=      5-min Rain = 0
KCA1 131604Z 08006KT 28/20 A3008 RMK A01 T02760202  RH  064%=      5-min Rain = 0
KCA1 131605Z 06006KT 28/20 A3008 RMK A01 T02750203  RH  064%=      5-min Rain = 0
KCA1 131606Z 09004KT 28/21 A3008 RMK A01 T02760206  RH  065%=      5-min Rain = 0
KCA1 131607Z 10004KT 28/21 A3008 RMK A01 T02790206  RH  064%=      5-min Rain = 0
KCA1 131608Z 10006KT 28/20 A3008 RMK A01 T02800202  RH  062%=      5-min Rain = 0
KCA1 131609Z 10004KT 28/20 A3008 RMK A01 T02790204  RH  064%=      5-min Rain = 0
KCA1 131610Z 09002KT 28/20 A3008 RMK A01 T02780202  RH  063%=      5-min Rain = 0
KCA1 131611Z 13004KT 28/20 A3008 RMK A01 T02770204  RH  064%=      5-min Rain = 0
KCA1 131612Z 13003KT 28/20 A3008 RMK A01 T02770203  RH  064%=      5-min Rain = 0
KCA1 131613Z 15001KT 28/20 A3008 RMK A01 T02770202  RH  063%=      5-min Rain = 0
KCA1 131614Z 17001KT 28/20 A3008 RMK A01 T02780204  RH  064%=      5-min Rain = 0
KCA1 131615Z 05003KT 28/20 A3008 RMK A01 T02790203  RH  064%=      5-min Rain = 0
KCA1 131616Z 05004KT 28/21 A3008 RMK A01 T02790205  RH  064%=      5-min Rain = 0
KCA1 131617Z 06004KT 28/21 A3008 RMK A01 T02820208  RH  064%=      5-min Rain = 0
KCA1 131618Z 06005KT 29/21 A3008 RMK A01 T02850206  RH  063%=      5-min Rain = 0
KCA1 131619Z 06007KT 29/20 A3008 RMK A01 T02850202  RH  061%=      5-min Rain = 0
KCA1 131620Z 07005KT 28/20 A3008 RMK A01 T02840202  RH  061%=      5-min Rain = 0
KCA1 131621Z 05005KT 28/20 A3008 RMK A01 T02830199  RH  061%=      5-min Rain = 0
KCA1 131622Z 05004KT 28/20 A3008 RMK A01 T02810200  RH  061%=      5-min Rain = 0
KCA1 131623Z 07004KT 28/21 A3008 RMK A01 T02810205  RH  063%=      5-min Rain = 0
KCA1 131624Z 08004KT 28/20 A3008 RMK A01 T02840202  RH  061%=      5-min Rain = 0
KCA1 131625Z 10005KT 28/20 A3008 RMK A01 T02830201  RH  061%=      5-min Rain = 0
KCA1 131626Z 11006KT 28/20 A3008 RMK A01 T02820201  RH  062%=      5-min Rain = 0
KCA1 131627Z 09003KT 28/20 A3008 RMK A01 T02820200  RH  061%=      5-min Rain = 0
KCA1 131628Z 09003KT 28/20 A3008 RMK A01 T02810201  RH  062%=      5-min Rain = 0
KCA1 131629Z 09005KT 28/20 A3008 RMK A01 T02810201  RH  062%=      5-min Rain = 0
KCA1 131630Z 09005KT 28/20 A3008 RMK A01 T02820201  RH  061%=      5-min Rain = 0
KCA1 131631Z 06004KT 28/20 A3008 RMK A01 T02820200  RH  061%=      5-min Rain = 0
KCA1 131632Z 08003KT 28/20 A3008 RMK A01 T02830199  RH  060%=      5-min Rain = 0
KCA1 131633Z 05005KT 28/20 A3008 RMK A01 T02840203  RH  062%=      5-min Rain = 0
KCA1 131634Z 06004KT 29/20 A3008 RMK A01 T02860201  RH  060%=      5-min Rain = 0
KCA1 131635Z 09003KT 29/20 A3008 RMK A01 T02860203  RH  061%=      5-min Rain = 0
KCA1 131636Z 09004KT 29/20 A3007 RMK A01 T02870203  RH  061%=      5-min Rain = 0
KCA1 131637Z 10004KT 29/21 A3007 RMK A01 T02870206  RH  061%=      5-min Rain = 0
KCA1 131638Z 10005KT 29/21 A3007 RMK A01 T02880206  RH  061%=      5-min Rain = 0
KCA1 131639Z 12005KT 29/21 A3007 RMK A01 T02900206  RH  060%=      5-min Rain = 0
KCA1 131640Z 13006KT 29/21 A3007 RMK A01 T02900206  RH  060%=      5-min Rain = 0
KCA1 131641Z 11006KT 29/20 A3007 RMK A01 T02900204  RH  060%=      5-min Rain = 0
KCA1 131642Z 10006KT 29/21 A3007 RMK A01 T02900205  RH  060%=      5-min Rain = 0
KCA1 131643Z 11009KT 29/20 A3007 RMK A01 T02900202  RH  059%=      5-min Rain = 0
KCA1 131644Z 11007KT 29/21 A3007 RMK A01 T02920207  RH  060%=      5-min Rain = 0
KCA1 131645Z 12007KT 30/21 A3007 RMK A01 T02950205  RH  058%=      5-min Rain = 0
KCA1 131646Z 09005KT 30/21 A3007 RMK A01 T02960208  RH  059%=      5-min Rain = 0
KCA1 131647Z 12005KT 30/20 A3007 RMK A01 T02970204  RH  057%=      5-min Rain = 0
KCA1 131648Z 13005KT 30/21 A3007 RMK A01 T02970205  RH  058%=      5-min Rain = 0
KCA1 131649Z 10005KT 30/20 A3007 RMK A01 T02960202  RH  057%=      5-min Rain = 0
KCA1 131650Z 09005KT 29/20 A3007 RMK A01 T02930202  RH  058%=      5-min Rain = 0
KCA1 131651Z 10005KT 29/21 A3007 RMK A01 T02920205  RH  059%=      5-min Rain = 0
KCA1 131652Z 10008KT 29/20 A3007 RMK A01 T02920203  RH  059%=      5-min Rain = 0
KCA1 131653Z 11008KT 29/21 A3007 RMK A01 T02930205  RH  059%=      5-min Rain = 0
KCA1 131654Z 10006KT 29/20 A3007 RMK A01 T02940203  RH  058%=      5-min Rain = 0
KCA1 131655Z 10005KT 29/20 A3007 RMK A01 T02940203  RH  058%=      5-min Rain = 0
KCA1 131656Z 11006KT 29/21 A3007 RMK A01 T02940205  RH  059%=      5-min Rain = 0
KCA1 131657Z 09006KT 29/20 A3007 RMK A01 T02940204  RH  058%=      5-min Rain = 0
KCA1 131658Z 08004KT 29/21 A3007 RMK A01 T02930205  RH  059%=      5-min Rain = 0
KCA1 131659Z 09005KT 29/20 A3007 RMK A01 T02930204  RH  059%=      5-min Rain = 0
KCA1 131700Z 10006KT 29/20 A3007 RMK A01 T02930203  RH  058%=      5-min Rain = 0
KCA1 131701Z 08004KT 30/20 A3007 RMK A01 T02950201  RH  057%=      5-min Rain = 0
KCA1 131702Z 10008KT 29/20 A3007 RMK A01 T02940200  RH  057%=      5-min Rain = 0
KCA1 131703Z 10009KT 29/20 A3007 RMK A01 T02940199  RH  056%=      5-min Rain = 0
KCA1 131704Z 07008KT 30/20 A3007 RMK A01 T02950198  RH  056%=      5-min Rain = 0
KCA1 131705Z 09007KT 30/20 A3007 RMK A01 T02970197  RH  055%=      5-min Rain = 0
KCA1 131706Z 08007KT 30/20 A3007 RMK A01 T02970198  RH  055%=      5-min Rain = 0
KCA1 131707Z 10007KT 30/20 A3007 RMK A01 T02970200  RH  056%=      5-min Rain = 0
KCA1 131708Z 09006KT 30/20 A3007 RMK A01 T02970199  RH  055%=      5-min Rain = 0
KCA1 131709Z 07004KT 30/20 A3007 RMK A01 T02970202  RH  057%=      5-min Rain = 0
KCA1 131710Z 09008KT 30/20 A3007 RMK A01 T02990200  RH  055%=      5-min Rain = 0
KCA1 131711Z 10006KT 30/20 A3007 RMK A01 T02990196  RH  054%=      5-min Rain = 0
KCA1 131712Z 09006KT 30/19 A3007 RMK A01 T02980193  RH  053%=      5-min Rain = 0
KCA1 131713Z 09007KT 30/20 A3007 RMK A01 T02970199  RH  056%=      5-min Rain = 0
KCA1 131714Z 07011KT 30/20 A3007 RMK A01 T02990197  RH  055%=      5-min Rain = 0
KCA1 131715Z 07007KT 30/19 A3007 RMK A01 T03000188  RH  051%=      5-min Rain = 0
KCA1 131716Z 06008KT 30/19 A3007 RMK A01 T03000192  RH  052%=      5-min Rain = 0
KCA1 131717Z 06007KT 30/19 A3007 RMK A01 T03000193  RH  053%=      5-min Rain = 0
KCA1 131718Z 09007KT 30/20 A3007 RMK A01 T03010197  RH  053%=      5-min Rain = 0
KCA1 131719Z 09006KT 30/19 A3007 RMK A01 T03020194  RH  052%=      5-min Rain = 0
KCA1 131720Z 11005KT 30/20 A3007 RMK A01 T03010197  RH  053%=      5-min Rain = 0
KCA1 131721Z 05004KT 30/20 A3007 RMK A01 T03030201  RH  054%=      5-min Rain = 0
KCA1 131722Z 05006KT 31/20 A3007 RMK A01 T03060199  RH  053%=      5-min Rain = 0
KCA1 131723Z 06009KT 31/20 A3007 RMK A01 T03080201  RH  053%=      5-min Rain = 0
KCA1 131724Z 07008KT 31/20 A3007 RMK A01 T03090197  RH  051%=      5-min Rain = 0
KCA1 131725Z 07010KT 31/20 A3007 RMK A01 T03080196  RH  051%=      5-min Rain = 0
KCA1 131726Z 06008KT 31/19 A3007 RMK A01 T03090189  RH  049%=      5-min Rain = 0
KCA1 131727Z 05006KT 31/19 A3007 RMK A01 T03080187  RH  048%=      5-min Rain = 0
KCA1 131728Z 06006KT 31/19 A3007 RMK A01 T03070186  RH  049%=      5-min Rain = 0
KCA1 131729Z 06005KT 30/19 A3007 RMK A01 T03040191  RH  051%=      5-min Rain = 0
KCA1 131730Z 05006KT 31/19 A3007 RMK A01 T03070193  RH  051%=      5-min Rain = 0
KCA1 131731Z 05009G14KT 31/20 A3007 RMK A01 T03090195  RH  051%=      5-min Rain = 0
KCA1 131732Z 05010KT 31/20 A3007 RMK A01 T03100196  RH  051%=      5-min Rain = 0.01
KCA1 131733Z 07008KT 31/20 A3007 RMK A01 T03100196  RH  051%=      5-min Rain = 0
KCA1 131734Z 09010KT 31/19 A3007 RMK A01 T03120194  RH  050%=      5-min Rain = 0
KCA1 131735Z 09010KT 31/19 A3007 RMK A01 T03130192  RH  049%=      5-min Rain = 0
KCA1 131736Z 09011KT 31/19 A3007 RMK A01 T03120191  RH  049%=      5-min Rain = 0
KCA1 131737Z 10010KT 31/19 A3007 RMK A01 T03110192  RH  049%=      5-min Rain = 0
KCA1 131738Z 10011KT 31/19 A3007 RMK A01 T03110190  RH  049%=      5-min Rain = 0
KCA1 131739Z 10007KT 31/19 A3007 RMK A01 T03100190  RH  049%=      5-min Rain = 0
KCA1 131740Z 11006KT 31/19 A3007 RMK A01 T03100194  RH  050%=      5-min Rain = 0
KCA1 131741Z 09007KT 31/19 A3007 RMK A01 T03120193  RH  049%=      5-min Rain = 0
KCA1 131742Z 06010KT 31/19 A3007 RMK A01 T03120193  RH  049%=      5-min Rain = 0
KCA1 131743Z 07011KT 32/19 A3007 RMK A01 T03150193  RH  048%=      5-min Rain = 0
KCA1 131744Z 07010G16KT 31/19 A3007 RMK A01 T03140188  RH  047%=      5-min Rain = 0
KCA1 131745Z 06013KT 31/19 A3007 RMK A01 T03120187  RH  047%=      5-min Rain = 0
KCA1 131746Z 06012KT 31/19 A3007 RMK A01 T03120190  RH  048%=      5-min Rain = 0
KCA1 131747Z 07011KT 31/19 A3007 RMK A01 T03130192  RH  049%=      5-min Rain = 0
KCA1 131748Z 08011KT 31/19 A3007 RMK A01 T03140191  RH  048%=      5-min Rain = 0
KCA1 131749Z 08010KT 31/19 A3007 RMK A01 T03130187  RH  047%=      5-min Rain = 0
KCA1 131750Z 06009KT 31/19 A3007 RMK A01 T03110188  RH  048%=      5-min Rain = 0
KCA1 131751Z 07010KT 31/19 A3007 RMK A01 T03100190  RH  049%=      5-min Rain = 0
KCA1 131752Z 07008KT 31/19 A3007 RMK A01 T03110193  RH  049%=      5-min Rain = 0
KCA1 131753Z 09010KT 32/19 A3007 RMK A01 T03150194  RH  049%=      5-min Rain = 0
KCA1 131754Z 12011KT 32/19 A3007 RMK A01 T03170192  RH  047%=      5-min Rain = 0
KCA1 131755Z 11010KT 32/19 A3007 RMK A01 T03170191  RH  047%=      5-min Rain = 0
KCA1 131756Z 11005KT 32/19 A3007 RMK A01 T03150193  RH  048%=      5-min Rain = 0
KCA1 131757Z 09007KT 32/19 A3007 RMK A01 T03160192  RH  048%=      5-min Rain = 0
KCA1 131758Z 08005KT 32/19 A3007 RMK A01 T03160194  RH  048%=      5-min Rain = 0
KCA1 131759Z 09009G15KT 32/20 A3007 RMK A01 T03180196  RH  048%=      5-min Rain = 0
KCA1 131800Z 08010KT 32/19 A3007 RMK A01 T03190193  RH  047%=      5-min Rain = 0
KCA1 131801Z 09011KT 32/19 A3007 RMK A01 T03180193  RH  048%=      5-min Rain = 0
KCA1 131802Z 09011KT 32/19 A3007 RMK A01 T03160193  RH  048%=      5-min Rain = 0
KCA1 131803Z 09009KT 31/19 A3007 RMK A01 T03130191  RH  048%=      5-min Rain = 0
KCA1 131804Z 11006KT 31/19 A3007 RMK A01 T03100189  RH  049%=      5-min Rain = 0
KCA1 131805Z 10004KT 31/19 A3007 RMK A01 T03070190  RH  050%=      5-min Rain = 0
KCA1 131806Z 08005KT 31/19 A3007 RMK A01 T03070192  RH  050%=      5-min Rain = 0
KCA1 131807Z 10009KT 31/20 A3007 RMK A01 T03100196  RH  051%=      5-min Rain = 0
KCA1 131808Z 10013KT 31/19 A3007 RMK A01 T03140191  RH  048%=      5-min Rain = 0
KCA1 131809Z 09014KT 31/19 A3007 RMK A01 T03140192  RH  048%=      5-min Rain = 0
KCA1 131810Z 10011KT 31/19 A3007 RMK A01 T03140193  RH  049%=      5-min Rain = 0
KCA1 131811Z 11011KT 32/19 A3006 RMK A01 T03150190  RH  047%=      5-min Rain = 0
KCA1 131812Z 11008KT 32/19 A3006 RMK A01 T03160192  RH  048%=      5-min Rain = 0
KCA1 131813Z 09007KT 32/19 A3006 RMK A01 T03150191  RH  048%=      5-min Rain = 0
KCA1 131814Z 09011KT 32/19 A3006 RMK A01 T03150194  RH  049%=      5-min Rain = 0
KCA1 131815Z 09012KT 32/19 A3006 RMK A01 T03150194  RH  049%=      5-min Rain = 0
KCA1 131816Z 08012KT 32/19 A3006 RMK A01 T03150193  RH  048%=      5-min Rain = 0
KCA1 131817Z 09008KT 31/19 A3006 RMK A01 T03140193  RH  049%=      5-min Rain = 0
KCA1 131818Z 07006KT 31/20 A3006 RMK A01 T03140195  RH  049%=      5-min Rain = 0
KCA1 131819Z 11009KT 32/20 A3006 RMK A01 T03150196  RH  049%=      5-min Rain = 0
KCA1 131820Z 10010KT 32/19 A3006 RMK A01 T03170193  RH  048%=      5-min Rain = 0
KCA1 131821Z 11008KT 32/19 A3006 RMK A01 T03160192  RH  048%=      5-min Rain = 0
KCA1 131822Z 12009G14KT 32/19 A3006 RMK A01 T03150191  RH  048%=      5-min Rain = 0
KCA1 131823Z 11008KT 32/19 A3006 RMK A01 T03150185  RH  046%=      5-min Rain = 0
KCA1 131824Z 09010KT 31/19 A3006 RMK A01 T03140191  RH  048%=      5-min Rain = 0
KCA1 131825Z 10011KT 32/19 A3006 RMK A01 T03150188  RH  047%=      5-min Rain = 0
KCA1 131826Z 08010KT 31/19 A3006 RMK A01 T03140189  RH  047%=      5-min Rain = 0
KCA1 131827Z 08009KT 31/19 A3006 RMK A01 T03140188  RH  047%=      5-min Rain = 0
KCA1 131828Z 09007KT 31/19 A3006 RMK A01 T03130190  RH  048%=      5-min Rain = 0
KCA1 131829Z 10007KT 31/19 A3006 RMK A01 T03120191  RH  048%=      5-min Rain = 0
KCA1 131830Z 11009KT 31/19 A3006 RMK A01 T03120189  RH  048%=      5-min Rain = 0
KCA1 131831Z 11009KT 31/19 A3006 RMK A01 T03110188  RH  048%=      5-min Rain = 0
KCA1 131832Z 11009KT 31/19 A3005 RMK A01 T03110190  RH  048%=      5-min Rain = 0
KCA1 131833Z 09009KT 31/19 A3006 RMK A01 T03130191  RH  048%=      5-min Rain = 0
KCA1 131834Z 07005KT 31/19 A3006 RMK A01 T03110189  RH  048%=      5-min Rain = 0
KCA1 131835Z 10005KT 31/19 A3005 RMK A01 T03090193  RH  050%=      5-min Rain = 0
KCA1 131836Z 08006KT 31/19 A3005 RMK A01 T03100192  RH  049%=      5-min Rain = 0
KCA1 131837Z 07010KT 31/20 A3005 RMK A01 T03140196  RH  050%=      5-min Rain = 0
KCA1 131838Z 06011KT 32/20 A3006 RMK A01 T03170195  RH  049%=      5-min Rain = 0
KCA1 131839Z 06005KT 32/19 A3006 RMK A01 T03150188  RH  047%=      5-min Rain = 0
KCA1 131840Z 08005KT 31/19 A3005 RMK A01 T03120188  RH  048%=      5-min Rain = 0
KCA1 131841Z 05009KT 31/19 A3005 RMK A01 T03120192  RH  049%=      5-min Rain = 0
KCA1 131842Z 05007KT 31/19 A3005 RMK A01 T03130189  RH  048%=      5-min Rain = 0
KCA1 131843Z 05005KT 31/19 A3005 RMK A01 T03130190  RH  048%=      5-min Rain = 0
KCA1 131844Z 05005KT 31/19 A3005 RMK A01 T03100187  RH  048%=      5-min Rain = 0
KCA1 131845Z 06006KT 31/20 A3005 RMK A01 T03080196  RH  051%=      5-min Rain = 0
KCA1 131846Z 07006KT 31/20 A3005 RMK A01 T03090201  RH  053%=      5-min Rain = 0
KCA1 131847Z 11009KT 31/21 A3005 RMK A01 T03130205  RH  053%=      5-min Rain = 0
KCA1 131848Z 12011KT 32/20 A3005 RMK A01 T03180201  RH  050%=      5-min Rain = 0
KCA1 131849Z 12010KT 32/20 A3005 RMK A01 T03190201  RH  050%=      5-min Rain = 0
KCA1 131850Z 13010KT 32/20 A3005 RMK A01 T03190200  RH  050%=      5-min Rain = 0
KCA1 131851Z 13010KT 32/20 A3005 RMK A01 T03190200  RH  049%=      5-min Rain = 0
KCA1 131852Z 14007KT 32/20 A3005 RMK A01 T03190200  RH  049%=      5-min Rain = 0
KCA1 131853Z 10006KT 32/20 A3005 RMK A01 T03190202  RH  050%=      5-min Rain = 0
KCA1 131854Z 09005KT 32/20 A3005 RMK A01 T03180201  RH  050%=      5-min Rain = 0
KCA1 131855Z 08007KT 32/20 A3005 RMK A01 T03180204  RH  051%=      5-min Rain = 0
KCA1 131856Z 08005KT 32/20 A3005 RMK A01 T03190202  RH  050%=      5-min Rain = 0
KCA1 131857Z 07007KT 32/20 A3005 RMK A01 T03210203  RH  050%=      5-min Rain = 0
KCA1 131858Z 08011KT 32/20 A3005 RMK A01 T03220200  RH  049%=      5-min Rain = 0
KCA1 131859Z 09010KT 32/20 A3005 RMK A01 T03190203  RH  050%=      5-min Rain = 0
KCA1 131900Z 10008KT 32/20 A3005 RMK A01 T03170203  RH  051%=      5-min Rain = 0
KCA1 131901Z 11008KT 32/20 A3005 RMK A01 T03160203  RH  051%=      5-min Rain = 0
KCA1 131902Z 08006KT 32/20 A3005 RMK A01 T03160204  RH  052%=      5-min Rain = 0
KCA1 131903Z 10010KT 32/20 A3005 RMK A01 T03190204  RH  051%=      5-min Rain = 0
KCA1 131904Z 11009KT 32/20 A3005 RMK A01 T03200201  RH  050%=      5-min Rain = 0
KCA1 131905Z 11006KT 32/20 A3005 RMK A01 T03200200  RH  049%=      5-min Rain = 0
KCA1 131906Z 11006KT 32/20 A3005 RMK A01 T03170201  RH  050%=      5-min Rain = 0
KCA1 131907Z 08007KT 32/20 A3005 RMK A01 T03150203  RH  051%=      5-min Rain = 0
KCA1 131908Z 07008G14KT 32/20 A3005 RMK A01 T03150204  RH  052%=      5-min Rain = 0
KCA1 131909Z 09011KT 32/20 A3005 RMK A01 T03210204  RH  050%=      5-min Rain = 0
KCA1 131910Z 07006KT 32/20 A3005 RMK A01 T03210200  RH  049%=      5-min Rain = 0
KCA1 131911Z 05005KT 32/20 A3005 RMK A01 T03160199  RH  050%=      5-min Rain = 0
KCA1 131912Z 10008KT 31/20 A3005 RMK A01 T03140199  RH  050%=      5-min Rain = 0
KCA1 131913Z 09009KT 32/20 A3005 RMK A01 T03160199  RH  050%=      5-min Rain = 0
KCA1 131914Z 09007KT 32/20 A3005 RMK A01 T03180195  RH  048%=      5-min Rain = 0
KCA1 131915Z 10005KT 32/20 A3005 RMK A01 T03180197  RH  049%=      5-min Rain = 0
KCA1 131916Z 07003KT 32/20 A3005 RMK A01 T03190197  RH  048%=      5-min Rain = 0
KCA1 131917Z 05006KT 32/20 A3005 RMK A01 T03220201  RH  049%=      5-min Rain = 0
KCA1 131918Z 04009KT 33/20 A3005 RMK A01 T03250195  RH  046%=      5-min Rain = 0
KCA1 131919Z 04009KT 33/20 A3005 RMK A01 T03250196  RH  047%=      5-min Rain = 0
KCA1 131920Z 04008KT 32/20 A3005 RMK A01 T03220195  RH  047%=      5-min Rain = 0
KCA1 131921Z 04008KT 32/19 A3005 RMK A01 T03190193  RH  047%=      5-min Rain = 0
KCA1 131922Z 03006KT 32/19 A3005 RMK A01 T03170192  RH  047%=      5-min Rain = 0
KCA1 131923Z 07006KT 32/19 A3005 RMK A01 T03180194  RH  048%=      5-min Rain = 0
KCA1 131924Z 07008KT 32/20 A3005 RMK A01 T03210197  RH  048%=      5-min Rain = 0
KCA1 131925Z 07008KT 32/20 A3005 RMK A01 T03240197  RH  047%=      5-min Rain = 0
KCA1 131926Z 09010KT 33/20 A3005 RMK A01 T03250195  RH  046%=      5-min Rain = 0
KCA1 131927Z 09011KT 32/19 A3005 RMK A01 T03230193  RH  046%=      5-min Rain = 0
KCA1 131928Z 10007G13KT 32/19 A3005 RMK A01 T03210193  RH  047%=      5-min Rain = 0
KCA1 131929Z 10007KT 32/19 A3005 RMK A01 T03200193  RH  047%=      5-min Rain = 0
KCA1 131930Z 07005KT 32/19 A3005 RMK A01 T03210192  RH  047%=      5-min Rain = 0
KCA1 131931Z 10003KT 32/19 A3005 RMK A01 T03210191  RH  046%=      5-min Rain = 0
KCA1 131932Z 13004KT 32/19 A3005 RMK A01 T03210193  RH  047%=      5-min Rain = 0
KCA1 131933Z 12002KT 32/19 A3005 RMK A01 T03220191  RH  046%=      5-min Rain = 0
KCA1 131934Z 09009G15KT 32/19 A3005 RMK A01 T03220194  RH  047%=      5-min Rain = 0
KCA1 131935Z 12008G15KT 32/20 A3005 RMK A01 T03220196  RH  048%=      5-min Rain = 0
KCA1 131936Z 09013KT 32/20 A3005 RMK A01 T03230196  RH  047%=      5-min Rain = 0
KCA1 131937Z 10011KT 33/20 A3005 RMK A01 T03250195  RH  046%=      5-min Rain = 0
KCA1 131938Z 08007KT 33/19 A3005 RMK A01 T03250193  RH  046%=      5-min Rain = 0
KCA1 131939Z 07010KT 32/20 A3005 RMK A01 T03240196  RH  047%=      5-min Rain = 0
KCA1 131940Z 07008KT 33/19 A3005 RMK A01 T03260193  RH  045%=      5-min Rain = 0
KCA1 131941Z 06008KT 33/19 A3005 RMK A01 T03250192  RH  046%=      5-min Rain = 0
KCA1 131942Z 09008KT 32/19 A3005 RMK A01 T03240191  RH  046%=      5-min Rain = 0
KCA1 131943Z 10005KT 32/19 A3005 RMK A01 T03220188  RH  045%=      5-min Rain = 0
KCA1 131944Z 08006KT 32/19 A3005 RMK A01 T03200190  RH  046%=      5-min Rain = 0
KCA1 131945Z 07003KT 32/19 A3005 RMK A01 T03220191  RH  046%=      5-min Rain = 0
KCA1 131946Z 08010KT 32/19 A3005 RMK A01 T03240192  RH  046%=      5-min Rain = 0
KCA1 131947Z 06008KT 33/19 A3005 RMK A01 T03250192  RH  046%=      5-min Rain = 0
KCA1 131948Z 06010KT 33/19 A3005 RMK A01 T03260192  RH  045%=      5-min Rain = 0
KCA1 131949Z 07009KT 33/19 A3005 RMK A01 T03270191  RH  045%=      5-min Rain = 0
KCA1 131950Z 08008KT 33/19 A3005 RMK A01 T03270190  RH  044%=      5-min Rain = 0
KCA1 131951Z 08005KT 33/19 A3005 RMK A01 T03260192  RH  045%=      5-min Rain = 0
KCA1 131952Z 08004KT 33/19 A3004 RMK A01 T03280190  RH  044%=      5-min Rain = 0
KCA1 131953Z 09006G13KT 33/19 A3004 RMK A01 T03260190  RH  045%=      5-min Rain = 0
KCA1 131954Z 10010KT 33/20 A3005 RMK A01 T03270196  RH  046%=      5-min Rain = 0
KCA1 131955Z 10008KT 33/19 A3004 RMK A01 T03300192  RH  044%=      5-min Rain = 0
KCA1 131956Z 11008KT 33/19 A3004 RMK A01 T03280192  RH  045%=      5-min Rain = 0
KCA1 131957Z 11008KT 33/20 A3004 RMK A01 T03280195  RH  045%=      5-min Rain = 0
KCA1 131958Z 10009KT 33/19 A3004 RMK A01 T03320187  RH  042%=      5-min Rain = 0
KCA1 131959Z 06008KT 33/19 A3004 RMK A01 T03320187  RH  042%=      5-min Rain = 0
KCA1 132000Z 06006KT 33/18 A3004 RMK A01 T03280184  RH  043%=      5-min Rain = 0
KCA1 132001Z 06004KT 33/19 A3004 RMK A01 T03250185  RH  043%=      5-min Rain = 0
KCA1 132002Z 09005KT 32/19 A3004 RMK A01 T03240189  RH  045%=      5-min Rain = 0
KCA1 132003Z 06006G12KT 33/19 A3004 RMK A01 T03270191  RH  045%=      5-min Rain = 0
KCA1 132004Z 11008KT 33/20 A3004 RMK A01 T03310199  RH  046%=      5-min Rain = 0
KCA1 132005Z 10008KT 34/20 A3004 RMK A01 T03370195  RH  043%=      5-min Rain = 0
KCA1 132006Z 08006KT 34/19 A3004 RMK A01 T03360193  RH  043%=      5-min Rain = 0
KCA1 132007Z 07010KT 33/19 A3004 RMK A01 T03330193  RH  044%=      5-min Rain = 0
KCA1 132008Z 08008KT 33/20 A3004 RMK A01 T03310195  RH  045%=      5-min Rain = 0
KCA1 132009Z 08005KT 33/19 A3004 RMK A01 T03340193  RH  044%=      5-min Rain = 0
KCA1 132010Z 05008KT 33/20 A3004 RMK A01 T03330195  RH  044%=      5-min Rain = 0
KCA1 132011Z 05009KT 33/19 A3004 RMK A01 T03310194  RH  044%=      5-min Rain = 0
KCA1 132012Z 07006KT 33/19 A3004 RMK A01 T03300192  RH  044%=      5-min Rain = 0
KCA1 132013Z 10011KT 33/20 A3004 RMK A01 T03280196  RH  046%=      5-min Rain = 0
KCA1 132014Z 09009KT 33/20 A3004 RMK A01 T03290195  RH  045%=      5-min Rain = 0
KCA1 132015Z 08005KT 33/19 A3004 RMK A01 T03270194  RH  046%=      5-min Rain = 0
KCA1 132016Z 10006KT 33/20 A3004 RMK A01 T03260196  RH  046%=      5-min Rain = 0
KCA1 132017Z 12007KT 33/20 A3004 RMK A01 T03260195  RH  046%=      5-min Rain = 0
KCA1 132018Z 12010KT 33/19 A3004 RMK A01 T03280194  RH  045%=      5-min Rain = 0
KCA1 132019Z 15009KT 33/19 A3004 RMK A01 T03290193  RH  045%=      5-min Rain = 0
KCA1 132020Z 15010KT 33/19 A3004 RMK A01 T03300194  RH  045%=      5-min Rain = 0
KCA1 132021Z 11009KT 33/19 A3004 RMK A01 T03310193  RH  044%=      5-min Rain = 0
KCA1 132022Z 09009KT 33/19 A3004 RMK A01 T03310194  RH  044%=      5-min Rain = 0
KCA1 132023Z 09007KT 33/20 A3004 RMK A01 T03310195  RH  045%=      5-min Rain = 0
KCA1 132024Z 06006KT 33/19 A3004 RMK A01 T03320191  RH  043%=      5-min Rain = 0
KCA1 132025Z 09006KT 33/19 A3004 RMK A01 T03280192  RH  045%=      5-min Rain = 0
KCA1 132026Z 11011KT 33/19 A3004 RMK A01 T03270192  RH  045%=      5-min Rain = 0
KCA1 132027Z 12010KT 33/20 A3004 RMK A01 T03280196  RH  046%=      5-min Rain = 0
KCA1 132028Z 12008KT 33/20 A3004 RMK A01 T03320195  RH  045%=      5-min Rain = 0
KCA1 132029Z 11008KT 33/19 A3004 RMK A01 T03310193  RH  044%=      5-min Rain = 0
KCA1 132030Z 12005KT 33/19 A3004 RMK A01 T03290193  RH  045%=      5-min Rain = 0
KCA1 132031Z 07005KT 33/19 A3004 RMK A01 T03280194  RH  045%=      5-min Rain = 0
KCA1 132032Z 07009KT 33/20 A3004 RMK A01 T03290195  RH  045%=      5-min Rain = 0
KCA1 132033Z 08010KT 33/19 A3004 RMK A01 T03300193  RH  045%=      5-min Rain = 0
KCA1 132034Z 09009KT 33/19 A3004 RMK A01 T03250191  RH  045%=      5-min Rain = 0
KCA1 132035Z 08007KT 32/19 A3004 RMK A01 T03210191  RH  046%=      5-min Rain = 0
KCA1 132036Z 09006KT 32/19 A3004 RMK A01 T03200193  RH  047%=      5-min Rain = 0
KCA1 132037Z 10009KT 32/19 A3004 RMK A01 T03220191  RH  046%=      5-min Rain = 0
KCA1 132038Z 09010KT 32/19 A3004 RMK A01 T03230191  RH  046%=      5-min Rain = 0
KCA1 132039Z 07009KT 32/19 A3004 RMK A01 T03230191  RH  046%=      5-min Rain = 0
KCA1 132040Z 07010KT 32/19 A3004 RMK A01 T03240191  RH  045%=      5-min Rain = 0
KCA1 132041Z 07006KT 33/19 A3004 RMK A01 T03260188  RH  044%=      5-min Rain = 0
KCA1 132042Z 06007KT 33/19 A3004 RMK A01 T03250189  RH  044%=      5-min Rain = 0
KCA1 132043Z 06011G16KT 33/19 A3004 RMK A01 T03250189  RH  045%=      5-min Rain = 0
KCA1 132044Z 05008KT 33/19 A3004 RMK A01 T03260190  RH  045%=      5-min Rain = 0
KCA1 132045Z 04009KT 33/19 A3004 RMK A01 T03280188  RH  043%=      5-min Rain = 0
KCA1 132046Z 06008KT 33/19 A3004 RMK A01 T03290190  RH  044%=      5-min Rain = 0
KCA1 132047Z 09009KT 34/19 A3004 RMK A01 T03350191  RH  043%=      5-min Rain = 0
KCA1 132048Z 08007KT 34/19 A3003 RMK A01 T03350187  RH  042%=      5-min Rain = 0
KCA1 132049Z 06004KT 33/18 A3003 RMK A01 T03320184  RH  041%=      5-min Rain = 0
KCA1 132050Z 10006G11KT 33/19 A3003 RMK A01 T03300186  RH  043%=      5-min Rain = 0
KCA1 132051Z 10012KT 33/19 A3003 RMK A01 T03300187  RH  043%=      5-min Rain = 0
KCA1 132052Z 08008KT 33/19 A3003 RMK A01 T03300186  RH  043%=      5-min Rain = 0
KCA1 132053Z 10010KT 33/19 A3003 RMK A01 T03300188  RH  043%=      5-min Rain = 0
KCA1 132054Z 11009KT 33/19 A3003 RMK A01 T03300188  RH  043%=      5-min Rain = 0
KCA1 132055Z 10008KT 33/19 A3003 RMK A01 T03290190  RH  044%=      5-min Rain = 0
KCA1 132056Z 10005KT 33/19 A3003 RMK A01 T03280188  RH  044%=      5-min Rain = 0
KCA1 132057Z 11009G14KT 33/19 A3003 RMK A01 T03260192  RH  045%=      5-min Rain = 0
KCA1 132058Z 12012KT 33/19 A3003 RMK A01 T03270192  RH  045%=      5-min Rain = 0
KCA1 132059Z 12012KT 33/19 A3003 RMK A01 T03260191  RH  045%=      5-min Rain = 0
KCA1 132100Z 12012KT 33/19 A3003 RMK A01 T03260192  RH  045%=      5-min Rain = 0
KCA1 132101Z 12012KT 33/19 A3003 RMK A01 T03260193  RH  046%=      5-min Rain = 0
KCA1 132102Z 13009KT 33/19 A3003 RMK A01 T03260194  RH  046%=      5-min Rain = 0
KCA1 132103Z 12010KT 33/19 A3003 RMK A01 T03290192  RH  045%=      5-min Rain = 0
KCA1 132104Z 13009KT 33/19 A3003 RMK A01 T03290190  RH  044%=      5-min Rain = 0
KCA1 132105Z 13007KT 33/19 A3003 RMK A01 T03290192  RH  045%=      5-min Rain = 0
KCA1 132106Z 12009KT 33/19 A3003 RMK A01 T03300193  RH  045%=      5-min Rain = 0
KCA1 132107Z 11009KT 33/19 A3003 RMK A01 T03320191  RH  044%=      5-min Rain = 0
KCA1 132108Z 11006KT 33/19 A3003 RMK A01 T03310192  RH  044%=      5-min Rain = 0
KCA1 132109Z 10006KT 33/19 A3002 RMK A01 T03320192  RH  044%=      5-min Rain = 0
KCA1 132110Z 10006KT 33/19 A3002 RMK A01 T03320191  RH  044%=      5-min Rain = 0
KCA1 132111Z 09006KT 33/19 A3002 RMK A01 T03310192  RH  044%=      5-min Rain = 0
KCA1 132112Z 08007KT 33/19 A3002 RMK A01 T03310191  RH  044%=      5-min Rain = 0
KCA1 132113Z 12009G15KT 33/19 A3002 RMK A01 T03300193  RH  044%=      5-min Rain = 0
KCA1 132114Z 12012KT 33/19 A3002 RMK A01 T03330191  RH  043%=      5-min Rain = 0
KCA1 132115Z 10009KT 33/20 A3002 RMK A01 T03340196  RH  044%=      5-min Rain = 0
KCA1 132116Z 10009KT 34/20 A3002 RMK A01 T03390196  RH  043%=      5-min Rain = 0
KCA1 132117Z 09012KT 34/19 A3002 RMK A01 T03370191  RH  042%=      5-min Rain = 0
KCA1 132118Z 09010KT 33/19 A3002 RMK A01 T03300191  RH  044%=      5-min Rain = 0
KCA1 132119Z 09009KT 33/19 A3002 RMK A01 T03280190  RH  044%=      5-min Rain = 0
KCA1 132120Z 08010KT 33/19 A3002 RMK A01 T03270189  RH  044%=      5-min Rain = 0
KCA1 132121Z 09007KT 33/19 A3002 RMK A01 T03270188  RH  044%=      5-min Rain = 0
KCA1 132122Z 08007KT 33/19 A3002 RMK A01 T03260188  RH  044%=      5-min Rain = 0
KCA1 132123Z 07009KT 33/19 A3002 RMK A01 T03280187  RH  043%=      5-min Rain = 0
KCA1 132124Z 08006KT 33/19 A3002 RMK A01 T03290187  RH  043%=      5-min Rain = 0
KCA1 132125Z 08012KT 33/19 A3002 RMK A01 T03290188  RH  043%=      5-min Rain = 0
KCA1 132126Z 09009KT 33/19 A3002 RMK A01 T03300188  RH  043%=      5-min Rain = 0
KCA1 132127Z 09007KT 33/19 A3002 RMK A01 T03300188  RH  043%=      5-min Rain = 0
KCA1 132128Z 09007KT 33/19 A3002 RMK A01 T03290187  RH  043%=      5-min Rain = 0
KCA1 132129Z 09007KT 33/19 A3002 RMK A01 T03250187  RH  044%=      5-min Rain = 0
KCA1 132130Z 08008KT 32/19 A3002 RMK A01 T03240187  RH  044%=      5-min Rain = 0
KCA1 132131Z 07006KT 32/19 A3002 RMK A01 T03240187  RH  044%=      5-min Rain = 0
KCA1 132132Z 11011KT 33/19 A3002 RMK A01 T03270190  RH  044%=      5-min Rain = 0
KCA1 132133Z 11010KT 33/19 A3002 RMK A01 T03290189  RH  044%=      5-min Rain = 0
KCA1 132134Z 11008KT 33/19 A3002 RMK A01 T03290190  RH  044%=      5-min Rain = 0
KCA1 132135Z 12013KT 33/19 A3002 RMK A01 T03290191  RH  044%=      5-min Rain = 0
KCA1 132136Z 12014KT 33/19 A3002 RMK A01 T03310190  RH  043%=      5-min Rain = 0
KCA1 132137Z 11010KT 33/19 A3002 RMK A01 T03310188  RH  043%=      5-min Rain = 0
KCA1 132138Z 12010KT 33/19 A3002 RMK A01 T03280189  RH  044%=      5-min Rain = 0
KCA1 132139Z 13011KT 33/19 A3002 RMK A01 T03290189  RH  044%=      5-min Rain = 0
KCA1 132140Z 13010KT 33/19 A3002 RMK A01 T03290188  RH  043%=      5-min Rain = 0
KCA1 132141Z 13008KT 33/19 A3001 RMK A01 T03290188  RH  043%=      5-min Rain = 0
KCA1 132142Z 11009KT 33/19 A3001 RMK A01 T03300187  RH  043%=      5-min Rain = 0
KCA1 132143Z 12008KT 33/19 A3001 RMK A01 T03300188  RH  043%=      5-min Rain = 0
KCA1 132144Z 11008KT 33/19 A3001 RMK A01 T03310189  RH  043%=      5-min Rain = 0
KCA1 132145Z 09007KT 33/19 A3001 RMK A01 T03310187  RH  043%=      5-min Rain = 0
KCA1 132146Z 09006KT 33/19 A3001 RMK A01 T03290188  RH  043%=      5-min Rain = 0
KCA1 132147Z 12006KT 33/19 A3001 RMK A01 T03280188  RH  043%=      5-min Rain = 0
KCA1 132148Z 10008KT 33/19 A3001 RMK A01 T03280189  RH  044%=      5-min Rain = 0
KCA1 132149Z 11006KT 33/19 A3001 RMK A01 T03280189  RH  044%=      5-min Rain = 0
KCA1 132150Z 08008KT 33/19 A3001 RMK A01 T03300193  RH  044%=      5-min Rain = 0
KCA1 132151Z 10011KT 34/19 A3001 RMK A01 T03350194  RH  043%=      5-min Rain = 0
KCA1 132152Z 11010KT 34/19 A3001 RMK A01 T03360189  RH  042%=      5-min Rain = 0
KCA1 132153Z 11012KT 33/19 A3001 RMK A01 T03340192  RH  043%=      5-min Rain = 0
KCA1 132154Z 10014KT 33/19 A3001 RMK A01 T03340188  RH  042%=      5-min Rain = 0
KCA1 132155Z 11008KT 33/19 A3001 RMK A01 T03330189  RH  043%=      5-min Rain = 0
KCA1 132156Z 11008G13KT 33/19 A3001 RMK A01 T03320189  RH  043%=      5-min Rain = 0
KCA1 132157Z 10010KT 33/19 A3001 RMK A01 T03320188  RH  042%=      5-min Rain = 0
KCA1 132158Z 10009KT 33/19 A3001 RMK A01 T03310189  RH  043%=      5-min Rain = 0
KCA1 132159Z 08011KT 33/19 A3001 RMK A01 T03320188  RH  043%=      5-min Rain = 0
KCA1 132200Z 07008KT 33/19 A3001 RMK A01 T03320188  RH  042%=      5-min Rain = 0
KCA1 132201Z 07007KT 33/19 A3001 RMK A01 T03330189  RH  043%=      5-min Rain = 0
KCA1 132202Z 10007KT 33/19 A3001 RMK A01 T03340188  RH  042%=      5-min Rain = 0
KCA1 132203Z 10009KT 33/19 A3001 RMK A01 T03330185  RH  041%=      5-min Rain = 0
KCA1 132204Z 11005KT 33/18 A30 RMK A01 T03310183  RH  041%=      5-min Rain = 0
KCA1 132205Z 10007KT 33/18 A30 RMK A01 T03300184  RH  042%=      5-min Rain = 0
KCA1 132206Z 11009KT 33/18 A30 RMK A01 T03300184  RH  042%=      5-min Rain = 0
KCA1 132207Z 14009KT 33/18 A30 RMK A01 T03290184  RH  042%=      5-min Rain = 0
KCA1 132208Z 14010KT 33/19 A30 RMK A01 T03310186  RH  042%=      5-min Rain = 0
KCA1 132209Z 13011KT 33/19 A30 RMK A01 T03320186  RH  042%=      5-min Rain = 0
KCA1 132210Z 14008KT 33/19 A30 RMK A01 T03310187  RH  042%=      5-min Rain = 0
KCA1 132211Z 14010KT 33/19 A30 RMK A01 T03310188  RH  043%=      5-min Rain = 0
KCA1 132212Z 13007KT 33/19 A30 RMK A01 T03310187  RH  043%=      5-min Rain = 0
KCA1 132213Z 13010KT 33/19 A30 RMK A01 T03300188  RH  043%=      5-min Rain = 0
KCA1 132214Z 13010KT 33/19 A30 RMK A01 T03290188  RH  043%=      5-min Rain = 0
KCA1 132215Z 15008KT 33/19 A30 RMK A01 T03310192  RH  044%=      5-min Rain = 0
KCA1 132216Z 15009KT 33/19 A30 RMK A01 T03340190  RH  043%=      5-min Rain = 0
KCA1 132217Z 15009KT 34/19 A30 RMK A01 T03360191  RH  043%=      5-min Rain = 0
KCA1 132218Z 14013KT 34/19 A30 RMK A01 T03370190  RH  042%=      5-min Rain = 0
KCA1 132219Z 14010KT 34/19 A30 RMK A01 T03360191  RH  042%=      5-min Rain = 0
KCA1 132220Z 13011KT 33/19 A30 RMK A01 T03340190  RH  043%=      5-min Rain = 0
KCA1 132221Z 12012KT 33/19 A30 RMK A01 T03340191  RH  043%=      5-min Rain = 0
KCA1 132222Z 13011KT 33/19 A30 RMK A01 T03340189  RH  042%=      5-min Rain = 0
KCA1 132223Z 14014KT 33/19 A30 RMK A01 T03320189  RH  043%=      5-min Rain = 0
KCA1 132224Z 14014KT 33/19 A30 RMK A01 T03310189  RH  043%=      5-min Rain = 0
KCA1 132225Z 14014KT 33/19 A30 RMK A01 T03310189  RH  043%=      5-min Rain = 0
KCA1 132226Z 12010KT 33/19 A30 RMK A01 T03310190  RH  043%=      5-min Rain = 0
KCA1 132227Z 12009KT 33/19 A30 RMK A01 T03300187  RH  043%=      5-min Rain = 0
KCA1 132228Z 12008KT 33/19 A30 RMK A01 T03290190  RH  044%=      5-min Rain = 0
KCA1 132229Z 13009KT 33/19 A30 RMK A01 T03310188  RH  043%=      5-min Rain = 0
KCA1 132230Z 12009KT 33/19 A30 RMK A01 T03300187  RH  043%=      5-min Rain = 0
KCA1 132231Z 11009KT 33/19 A30 RMK A01 T03290188  RH  043%=      5-min Rain = 0
KCA1 132232Z 10008KT 33/19 A30 RMK A01 T03280187  RH  043%=      5-min Rain = 0
KCA1 132233Z 14006KT 33/19 A30 RMK A01 T03280190  RH  044%=      5-min Rain = 0
KCA1 132234Z 15007KT 33/19 A30 RMK A01 T03300190  RH  044%=      5-min Rain = 0
KCA1 132235Z 16007KT 33/19 A30 RMK A01 T03320189  RH  043%=      5-min Rain = 0
KCA1 132236Z 13005G10KT 33/19 A30 RMK A01 T03330188  RH  043%=      5-min Rain = 0
KCA1 132237Z 11007KT 33/19 A30 RMK A01 T03330185  RH  042%=      5-min Rain = 0
KCA1 132238Z 11008KT 33/18 A30 RMK A01 T03320183  RH  041%=      5-min Rain = 0
KCA1 132239Z 10009KT 33/18 A30 RMK A01 T03310184  RH  042%=      5-min Rain = 0
KCA1 132240Z 09008KT 33/18 A30 RMK A01 T03320184  RH  042%=      5-min Rain = 0
KCA1 132241Z 10011G16KT 33/19 A30 RMK A01 T03310187  RH  043%=      5-min Rain = 0
KCA1 132242Z 11010KT 33/19 A30 RMK A01 T03330187  RH  042%=      5-min Rain = 0
KCA1 132243Z 13010KT 33/19 A30 RMK A01 T03330186  RH  042%=      5-min Rain = 0
KCA1 132244Z 14012KT 33/19 A30 RMK A01 T03330187  RH  042%=      5-min Rain = 0
KCA1 132245Z 13012KT 33/19 A30 RMK A01 T03330186  RH  042%=      5-min Rain = 0
KCA1 132246Z 12009KT 33/19 A30 RMK A01 T03320186  RH  042%=      5-min Rain = 0
KCA1 132247Z 10005KT 33/19 A30 RMK A01 T03310185  RH  042%=      5-min Rain = 0
KCA1 132248Z 14003KT 33/19 A30 RMK A01 T03290186  RH  043%=      5-min Rain = 0
KCA1 132249Z 13005KT 33/19 A30 RMK A01 T03290186  RH  043%=      5-min Rain = 0
KCA1 132250Z 14005KT 33/19 A30 RMK A01 T03310188  RH  043%=      5-min Rain = 0
KCA1 132251Z 15007KT 33/19 A30 RMK A01 T03320189  RH  043%=      5-min Rain = 0
KCA1 132252Z 15010KT 33/19 A30 RMK A01 T03340190  RH  043%=      5-min Rain = 0
KCA1 132253Z 13012KT 34/19 A30 RMK A01 T03350189  RH  042%=      5-min Rain = 0
KCA1 132254Z 12010KT 34/19 A30 RMK A01 T03350187  RH  042%=      5-min Rain = 0
KCA1 132255Z 13009KT 33/19 A30 RMK A01 T03320185  RH  042%=      5-min Rain = 0
KCA1 132256Z 12007KT 33/19 A30 RMK A01 T03320185  RH  042%=      5-min Rain = 0
KCA1 132257Z 07008KT 33/19 A30 RMK A01 T03320186  RH  042%=      5-min Rain = 0
KCA1 132258Z 10010KT 33/18 A30 RMK A01 T03320182  RH  041%=      5-min Rain = 0
KCA1 132259Z 09010KT 33/18 A30 RMK A01 T03320181  RH  041%=      5-min Rain = 0
KCA1 132300Z 09009KT 33/18 A30 RMK A01 T03310183  RH  041%=      5-min Rain = 0
KCA1 132301Z 10009KT 33/18 A30 RMK A01 T03310182  RH  041%=      5-min Rain = 0
KCA1 132302Z 12008KT 33/18 A30 RMK A01 T03310182  RH  041%=      5-min Rain = 0
KCA1 132303Z 11007KT 33/18 A30 RMK A01 T03310180  RH  041%=      5-min Rain = 0
KCA1 132304Z 11005KT 33/18 A30 RMK A01 T03290182  RH  042%=      5-min Rain = 0
KCA1 132305Z 08007KT 33/18 A30 RMK A01 T03300184  RH  042%=      5-min Rain = 0
KCA1 132306Z 08006KT 33/18 A30 RMK A01 T03310182  RH  041%=      5-min Rain = 0
KCA1 132307Z 10006KT 33/18 A30 RMK A01 T03310183  RH  041%=      5-min Rain = 0
KCA1 132308Z 08005KT 33/18 A30 RMK A01 T03300183  RH  042%=      5-min Rain = 0
KCA1 132309Z 10006KT 33/18 A30 RMK A01 T03290183  RH  042%=      5-min Rain = 0
KCA1 132310Z 09008G13KT 33/19 A30 RMK A01 T03300185  RH  042%=      5-min Rain = 0
KCA1 132311Z 10009G14KT 33/18 A30 RMK A01 T03310184  RH  042%=      5-min Rain = 0
KCA1 132312Z 09008KT 33/18 A30 RMK A01 T03290182  RH  042%=      5-min Rain = 0
KCA1 132313Z 11007KT 33/19 A30 RMK A01 T03290186  RH  043%=      5-min Rain = 0
KCA1 132314Z 10009KT 33/18 A30 RMK A01 T03310182  RH  041%=      5-min Rain = 0
KCA1 132315Z 11009KT 33/18 A30 RMK A01 T03310183  RH  041%=      5-min Rain = 0
KCA1 132316Z 14010KT 33/19 A30 RMK A01 T03310185  RH  042%=      5-min Rain = 0
KCA1 132317Z 15009KT 33/18 A30 RMK A01 T03300184  RH  042%=      5-min Rain = 0
KCA1 132318Z 14008KT 33/19 A30 RMK A01 T03300187  RH  043%=      5-min Rain = 0
KCA1 132319Z 14006KT 33/19 A30 RMK A01 T03300186  RH  043%=      5-min Rain = 0
KCA1 132320Z 12006KT 33/19 A30 RMK A01 T03310187  RH  043%=      5-min Rain = 0
KCA1 132321Z 12007KT 33/19 A30 RMK A01 T03320186  RH  042%=      5-min Rain = 0
KCA1 132322Z 13007KT 33/19 A30 RMK A01 T03320187  RH  042%=      5-min Rain = 0
KCA1 132323Z 13006KT 33/19 A30 RMK A01 T03320185  RH  042%=      5-min Rain = 0
KCA1 132324Z 12006KT 33/19 A30 RMK A01 T03320185  RH  042%=      5-min Rain = 0
KCA1 132325Z 14009KT 33/19 A30 RMK A01 T03310187  RH  042%=      5-min Rain = 0
KCA1 132326Z 13008KT 33/18 A30 RMK A01 T03300184  RH  042%=      5-min Rain = 0
KCA1 132327Z 12006KT 33/19 A30 RMK A01 T03310185  RH  042%=      5-min Rain = 0
KCA1 132328Z 13009KT 33/19 A30 RMK A01 T03320186  RH  042%=      5-min Rain = 0
KCA1 132329Z 12009KT 33/18 A3001 RMK A01 T03310183  RH  042%=      5-min Rain = 0
KCA1 132330Z 11008KT 33/18 A3001 RMK A01 T03300182  RH  041%=      5-min Rain = 0
KCA1 132331Z 12006KT 33/18 A30 RMK A01 T03280182  RH  042%=      5-min Rain = 0
KCA1 132332Z 11010KT 33/18 A30 RMK A01 T03270183  RH  042%=      5-min Rain = 0
KCA1 132333Z 09010KT 33/18 A3001 RMK A01 T03270183  RH  042%=      5-min Rain = 0
KCA1 132334Z 09011KT 33/18 A3001 RMK A01 T03280183  RH  042%=      5-min Rain = 0
KCA1 132335Z 09008KT 33/18 A3001 RMK A01 T03280183  RH  042%=      5-min Rain = 0
KCA1 132336Z 10007KT 33/18 A3001 RMK A01 T03270184  RH  043%=      5-min Rain = 0
KCA1 132337Z 12005KT 33/18 A30 RMK A01 T03270184  RH  043%=      5-min Rain = 0
KCA1 132338Z 11006KT 33/19 A30 RMK A01 T03280185  RH  043%=      5-min Rain = 0
KCA1 132339Z 11009KT 33/19 A30 RMK A01 T03290186  RH  043%=      5-min Rain = 0
KCA1 132340Z 13009KT 33/19 A30 RMK A01 T03290187  RH  043%=      5-min Rain = 0
KCA1 132341Z 12009KT 33/19 A30 RMK A01 T03290187  RH  043%=      5-min Rain = 0
KCA1 132342Z 11007KT 33/19 A30 RMK A01 T03290187  RH  043%=      5-min Rain = 0
KCA1 132343Z 13010KT 33/19 A30 RMK A01 T03280188  RH  043%=      5-min Rain = 0
KCA1 132344Z 13011KT 33/19 A30 RMK A01 T03280186  RH  043%=      5-min Rain = 0
KCA1 132345Z 14009KT 33/19 A30 RMK A01 T03260185  RH  043%=      5-min Rain = 0
KCA1 132346Z 14011KT 33/19 A30 RMK A01 T03260187  RH  044%=      5-min Rain = 0
KCA1 132347Z 14012KT 33/19 A30 RMK A01 T03260186  RH  044%=      5-min Rain = 0
KCA1 132348Z 13011KT 33/19 A30 RMK A01 T03260185  RH  043%=      5-min Rain = 0
KCA1 132349Z 12011KT 33/19 A30 RMK A01 T03260185  RH  043%=      5-min Rain = 0
KCA1 132350Z 13011KT 33/18 A30 RMK A01 T03250184  RH  043%=      5-min Rain = 0
KCA1 132351Z 12009KT 33/18 A30 RMK A01 T03250184  RH  043%=      5-min Rain = 0
KCA1 132352Z 13010KT 32/18 A30 RMK A01 T03240184  RH  043%=      5-min Rain = 0
KCA1 132353Z 13007KT 32/18 A30 RMK A01 T03240183  RH  043%=      5-min Rain = 0
KCA1 132354Z 14008KT 32/18 A30 RMK A01 T03240184  RH  043%=      5-min Rain = 0
KCA1 132355Z 15010KT 32/18 A30 RMK A01 T03240183  RH  043%=      5-min Rain = 0
KCA1 132356Z 15010KT 32/18 A30 RMK A01 T03240184  RH  043%=      5-min Rain = 0
KCA1 132357Z 14009KT 32/18 A30 RMK A01 T03240183  RH  043%=      5-min Rain = 0
KCA1 132358Z 14008KT 32/18 A30 RMK A01 T03240183  RH  043%=      5-min Rain = 0
KCA1 132359Z 15007KT 32/18 A30 RMK A01 T03240183  RH  043%=      5-min Rain = 0
KCA1 140000Z 14008KT 32/18 A30 RMK A01 T03240184  RH  043%=      5-min Rain = 0
KCA1 140001Z 13006KT 32/18 A30 RMK A01 T03230184  RH  044%=      5-min Rain = 0
KCA1 140002Z 12004KT 32/18 A30 RMK A01 T03240184  RH  044%=      5-min Rain = 0
KCA1 140003Z 13006KT 33/19 A30 RMK A01 T03250186  RH  044%=      5-min Rain = 0
KCA1 140004Z 14008KT 33/19 A30 RMK A01 T03250187  RH  044%=      5-min Rain = 0
KCA1 140005Z 14009KT 33/19 A30 RMK A01 T03260186  RH  043%=      5-min Rain = 0
KCA1 140006Z 13008KT 33/18 A30 RMK A01 T03260184  RH  043%=      5-min Rain = 0
KCA1 140007Z 14006KT 33/18 A30 RMK A01 T03250184  RH  043%=      5-min Rain = 0
KCA1 140008Z 13006KT 32/18 A30 RMK A01 T03240183  RH  043%=      5-min Rain = 0
KCA1 140009Z 14008KT 32/18 A30 RMK A01 T03230184  RH  044%=      5-min Rain = 0
KCA1 140010Z 14007KT 32/18 A30 RMK A01 T03230184  RH  044%=      5-min Rain = 0
KCA1 140011Z 14006KT 32/19 A30 RMK A01 T03220185  RH  044%=      5-min Rain = 0
KCA1 140012Z 14006KT 32/19 A30 RMK A01 T03220185  RH  044%=      5-min Rain = 0
KCA1 140013Z 13008KT 32/19 A30 RMK A01 T03220185  RH  044%=      5-min Rain = 0
KCA1 140014Z 13009KT 32/19 A30 RMK A01 T03230187  RH  044%=      5-min Rain = 0
KCA1 140015Z 12009KT 32/19 A30 RMK A01 T03220187  RH  045%=      5-min Rain = 0
KCA1 140016Z 12009KT 32/19 A30 RMK A01 T03220186  RH  045%=      5-min Rain = 0
KCA1 140017Z 12010KT 32/19 A30 RMK A01 T03220186  RH  045%=      5-min Rain = 0
KCA1 140018Z 12009KT 32/19 A30 RMK A01 T03210185  RH  045%=      5-min Rain = 0
KCA1 140019Z 12009KT 32/19 A30 RMK A01 T03200186  RH  045%=      5-min Rain = 0
KCA1 140020Z 11009KT 32/19 A30 RMK A01 T03200185  RH  045%=      5-min Rain = 0
KCA1 140021Z 14009KT 32/19 A30 RMK A01 T03190187  RH  045%=      5-min Rain = 0
KCA1 140022Z 13010KT 32/19 A30 RMK A01 T03190186  RH  045%=      5-min Rain = 0
KCA1 140023Z 14010KT 32/19 A30 RMK A01 T03190186  RH  045%=      5-min Rain = 0
KCA1 140024Z 13010KT 32/19 A30 RMK A01 T03190186  RH  045%=      5-min Rain = 0
KCA1 140025Z 12009KT 32/19 A30 RMK A01 T03190185  RH  045%=      5-min Rain = 0
KCA1 140026Z 12007KT 32/19 A30 RMK A01 T03180185  RH  045%=      5-min Rain = 0
KCA1 140027Z 13007KT 32/19 A30 RMK A01 T03180186  RH  046%=      5-min Rain = 0
KCA1 140028Z 13008KT 32/19 A30 RMK A01 T03180186  RH  046%=      5-min Rain = 0
KCA1 140029Z 13009KT 32/19 A30 RMK A01 T03180185  RH  045%=      5-min Rain = 0
KCA1 140030Z 13009KT 32/18 A30 RMK A01 T03180184  RH  045%=      5-min Rain = 0
KCA1 140031Z 13009KT 32/19 A30 RMK A01 T03170185  RH  045%=      5-min Rain = 0
KCA1 140032Z 13008KT 32/19 A30 RMK A01 T03170185  RH  046%=      5-min Rain = 0
KCA1 140033Z 12007KT 32/19 A30 RMK A01 T03170186  RH  046%=      5-min Rain = 0
KCA1 140034Z 13007KT 32/19 A30 RMK A01 T03170186  RH  046%=      5-min Rain = 0
KCA1 140035Z 13007KT 32/19 A30 RMK A01 T03170187  RH  046%=      5-min Rain = 0
KCA1 140036Z 13007KT 32/19 A3001 RMK A01 T03170185  RH  046%=      5-min Rain = 0
KCA1 140037Z 13005KT 32/19 A3001 RMK A01 T03160185  RH  046%=      5-min Rain = 0
KCA1 140038Z 13007KT 32/18 A3001 RMK A01 T03160184  RH  046%=      5-min Rain = 0
KCA1 140039Z 13006KT 32/18 A3001 RMK A01 T03160184  RH  045%=      5-min Rain = 0
KCA1 140040Z 13006KT 32/19 A3001 RMK A01 T03150185  RH  046%=      5-min Rain = 0
KCA1 140041Z 13006KT 32/19 A3001 RMK A01 T03160186  RH  046%=      5-min Rain = 0
KCA1 140042Z 13007KT 32/19 A3001 RMK A01 T03160186  RH  046%=      5-min Rain = 0
KCA1 140043Z 13007KT 32/19 A3001 RMK A01 T03150186  RH  046%=      5-min Rain = 0
KCA1 140044Z 12007KT 32/19 A3001 RMK A01 T03150185  RH  046%=      5-min Rain = 0
KCA1 140045Z 12007KT 32/19 A3001 RMK A01 T03150186  RH  046%=      5-min Rain = 0
KCA1 140046Z 13007KT 31/19 A3001 RMK A01 T03140187  RH  047%=      5-min Rain = 0
KCA1 140047Z 13007KT 31/19 A3001 RMK A01 T03130186  RH  047%=      5-min Rain = 0
KCA1 140048Z 13008KT 31/19 A3001 RMK A01 T03130188  RH  047%=      5-min Rain = 0
KCA1 140049Z 14008KT 31/19 A3001 RMK A01 T03120187  RH  047%=      5-min Rain = 0
KCA1 140050Z 13008KT 31/19 A3001 RMK A01 T03120188  RH  048%=      5-min Rain = 0
KCA1 140051Z 13008KT 31/19 A3001 RMK A01 T03110187  RH  048%=      5-min Rain = 0
KCA1 140052Z 14008KT 31/19 A3001 RMK A01 T03100187  RH  048%=      5-min Rain = 0
KCA1 140053Z 13006KT 31/19 A3001 RMK A01 T03100188  RH  048%=      5-min Rain = 0
KCA1 140054Z 13006KT 31/19 A3001 RMK A01 T03090188  RH  048%=      5-min Rain = 0
KCA1 140055Z 13006KT 31/19 A3001 RMK A01 T03090188  RH  048%=      5-min Rain = 0
KCA1 140056Z 13007KT 31/19 A3002 RMK A01 T03090188  RH  049%=      5-min Rain = 0
KCA1 140057Z 13007KT 31/19 A3001 RMK A01 T03080188  RH  049%=      5-min Rain = 0
KCA1 140058Z 13006KT 31/19 A3001 RMK A01 T03070188  RH  049%=      5-min Rain = 0
KCA1 140059Z 13006KT 31/19 A3001 RMK A01 T03070188  RH  049%=      5-min Rain = 0
KCA1 140100Z 13006KT 31/19 A3001 RMK A01 T03060189  RH  050%=      5-min Rain = 0
KCA1 140101Z 13006KT 31/19 A3001 RMK A01 T03050189  RH  050%=      5-min Rain = 0
KCA1 140102Z 13005KT 30/19 A3001 RMK A01 T03040189  RH  050%=      5-min Rain = 0
KCA1 140103Z 13005KT 30/19 A3002 RMK A01 T03030189  RH  051%=      5-min Rain = 0
KCA1 140104Z 13006KT 30/19 A3002 RMK A01 T03020190  RH  051%=      5-min Rain = 0
KCA1 140105Z 13006KT 30/19 A3002 RMK A01 T03010190  RH  051%=      5-min Rain = 0
KCA1 140106Z 13006KT 30/19 A3002 RMK A01 T03000189  RH  051%=      5-min Rain = 0
KCA1 140107Z 13005KT 30/19 A3002 RMK A01 T02990190  RH  052%=      5-min Rain = 0
KCA1 140108Z 13005KT 30/19 A3002 RMK A01 T02980190  RH  052%=      5-min Rain = 0
KCA1 140109Z 12006KT 30/19 A3002 RMK A01 T02970191  RH  053%=      5-min Rain = 0
KCA1 140110Z 13007KT 30/19 A3002 RMK A01 T02960191  RH  053%=      5-min Rain = 0
KCA1 140111Z 13006KT 30/19 A3002 RMK A01 T02960191  RH  053%=      5-min Rain = 0
KCA1 140112Z 13006KT 30/19 A3002 RMK A01 T02950190  RH  053%=      5-min Rain = 0
KCA1 140113Z 13006KT 30/19 A3002 RMK A01 T02950191  RH  054%=      5-min Rain = 0
KCA1 140114Z 13006KT 29/19 A3002 RMK A01 T02940191  RH  054%=      5-min Rain = 0
KCA1 140115Z 13006KT 29/19 A3002 RMK A01 T02940191  RH  054%=      5-min Rain = 0
KCA1 140116Z 13006KT 29/19 A3002 RMK A01 T02930191  RH  054%=      5-min Rain = 0
KCA1 140117Z 13006KT 29/19 A3002 RMK A01 T02930191  RH  054%=      5-min Rain = 0
KCA1 140118Z 13006KT 29/19 A3002 RMK A01 T02930192  RH  055%=      5-min Rain = 0
KCA1 140119Z 13006KT 29/19 A3002 RMK A01 T02920192  RH  055%=      5-min Rain = 0
KCA1 140120Z 13006KT 29/19 A3002 RMK A01 T02910192  RH  055%=      5-min Rain = 0
KCA1 140121Z 13006KT 29/19 A3002 RMK A01 T02910192  RH  055%=      5-min Rain = 0
KCA1 140122Z 13005KT 29/19 A3002 RMK A01 T02900192  RH  055%=      5-min Rain = 0
KCA1 140123Z 13005KT 29/19 A3003 RMK A01 T02890192  RH  055%=      5-min Rain = 0
KCA1 140124Z 13005KT 29/19 A3003 RMK A01 T02890192  RH  056%=      5-min Rain = 0
KCA1 140125Z 12005KT 29/19 A3003 RMK A01 T02890193  RH  056%=      5-min Rain = 0
KCA1 140126Z 12005KT 29/19 A3003 RMK A01 T02880194  RH  057%=      5-min Rain = 0
KCA1 140127Z 12005KT 29/20 A3003 RMK A01 T02870195  RH  057%=      5-min Rain = 0
KCA1 140128Z 13005KT 29/19 A3003 RMK A01 T02860194  RH  058%=      5-min Rain = 0
KCA1 140129Z 13004KT 29/20 A3003 RMK A01 T02860195  RH  058%=      5-min Rain = 0
KCA1 140130Z 13004KT 29/20 A3003 RMK A01 T02850195  RH  058%=      5-min Rain = 0
KCA1 140131Z 13004KT 29/19 A3003 RMK A01 T02850194  RH  058%=      5-min Rain = 0
KCA1 140132Z 13003KT 28/19 A3003 RMK A01 T02840194  RH  058%=      5-min Rain = 0
KCA1 140133Z 14003KT 28/20 A3003 RMK A01 T02840195  RH  058%=      5-min Rain = 0
KCA1 140134Z 14003KT 28/20 A3003 RMK A01 T02840195  RH  059%=      5-min Rain = 0
KCA1 140135Z 14003KT 28/20 A3003 RMK A01 T02830195  RH  059%=      5-min Rain = 0
KCA1 140136Z 14003KT 28/20 A3003 RMK A01 T02830195  RH  059%=      5-min Rain = 0
KCA1 140137Z 14003KT 28/20 A3003 RMK A01 T02830195  RH  059%=      5-min Rain = 0
KCA1 140138Z 14003KT 28/20 A3003 RMK A01 T02820196  RH  059%=      5-min Rain = 0
KCA1 140139Z 14003KT 28/20 A3003 RMK A01 T02820196  RH  059%=      5-min Rain = 0
KCA1 140140Z 14003KT 28/20 A3003 RMK A01 T02810196  RH  060%=      5-min Rain = 0
KCA1 140141Z 14003KT 28/20 A3004 RMK A01 T02810196  RH  060%=      5-min Rain = 0
KCA1 140142Z 13003KT 28/20 A3004 RMK A01 T02810196  RH  060%=      5-min Rain = 0
KCA1 140143Z 12003KT 28/20 A3004 RMK A01 T02800197  RH  060%=      5-min Rain = 0
KCA1 140144Z 12003KT 28/20 A3004 RMK A01 T02790198  RH  061%=      5-min Rain = 0
KCA1 140145Z 12003KT 28/20 A3004 RMK A01 T02770198  RH  062%=      5-min Rain = 0
KCA1 140146Z 12003KT 28/20 A3004 RMK A01 T02760199  RH  063%=      5-min Rain = 0
KCA1 140147Z 12003KT 28/20 A3004 RMK A01 T02750200  RH  064%=      5-min Rain = 0
KCA1 140148Z 13003KT 27/20 A3004 RMK A01 T02730199  RH  064%=      5-min Rain = 0
KCA1 140149Z 13003KT 27/20 A3004 RMK A01 T02720199  RH  064%=      5-min Rain = 0
KCA1 140150Z 13003KT 27/20 A3004 RMK A01 T02720197  RH  063%=      5-min Rain = 0
KCA1 140151Z 13003KT 27/20 A3004 RMK A01 T02730196  RH  063%=      5-min Rain = 0
KCA1 140152Z 13003KT 27/20 A3004 RMK A01 T02740197  RH  063%=      5-min Rain = 0
KCA1 140153Z 13003KT 27/20 A3004 RMK A01 T02740198  RH  063%=      5-min Rain = 0
KCA1 140154Z 13003KT 27/20 A3004 RMK A01 T02740198  RH  063%=      5-min Rain = 0
KCA1 140155Z 12003KT 27/20 A3005 RMK A01 T02740198  RH  063%=      5-min Rain = 0
KCA1 140156Z 11002KT 27/20 A3005 RMK A01 T02730200  RH  064%=      5-min Rain = 0
KCA1 140157Z 11002KT 27/20 A3005 RMK A01 T02720200  RH  065%=      5-min Rain = 0
KCA1 140158Z 12003KT 27/20 A3005 RMK A01 T02700200  RH  065%=      5-min Rain = 0
KCA1 140159Z 12003KT 27/20 A3005 RMK A01 T02690199  RH  065%=      5-min Rain = 0
KCA1 140200Z 12003KT 27/20 A3005 RMK A01 T02690199  RH  066%=      5-min Rain = 0
KCA1 140201Z 12003KT 27/20 A3005 RMK A01 T02680200  RH  066%=      5-min Rain = 0
KCA1 140202Z 12003KT 27/20 A3005 RMK A01 T02680200  RH  066%=      5-min Rain = 0
KCA1 140203Z 11003KT 27/20 A3005 RMK A01 T02670200  RH  066%=      5-min Rain = 0
KCA1 140204Z 12003KT 27/20 A3005 RMK A01 T02670198  RH  066%=      5-min Rain = 0
KCA1 140205Z 11003KT 27/20 A3005 RMK A01 T02670198  RH  066%=      5-min Rain = 0
KCA1 140206Z 10003KT 27/20 A3005 RMK A01 T02670200  RH  066%=      5-min Rain = 0
KCA1 140207Z 09003KT 27/20 A3005 RMK A01 T02670201  RH  067%=      5-min Rain = 0
KCA1 140208Z 09003KT 26/20 A3006 RMK A01 T02640200  RH  068%=      5-min Rain = 0
KCA1 140209Z 09003KT 26/20 A3006 RMK A01 T02630200  RH  068%=      5-min Rain = 0
KCA1 140210Z 08003KT 26/20 A3006 RMK A01 T02620200  RH  069%=      5-min Rain = 0
KCA1 140211Z 07004KT 26/20 A3006 RMK A01 T02610200  RH  069%=      5-min Rain = 0
KCA1 140212Z 07004KT 26/20 A3006 RMK A01 T02600200  RH  070%=      5-min Rain = 0
KCA1 140213Z 06004KT 26/20 A3006 RMK A01 T02590201  RH  070%=      5-min Rain = 0
KCA1 140214Z 04005KT 26/20 A3006 RMK A01 T02580200  RH  070%=      5-min Rain = 0
KCA1 140215Z 04006KT 26/20 A3006 RMK A01 T02570201  RH  071%=      5-min Rain = 0
KCA1 140216Z 04006KT 26/20 A3006 RMK A01 T02560200  RH  071%=      5-min Rain = 0
KCA1 140217Z 05006KT 26/20 A3006 RMK A01 T02550201  RH  072%=      5-min Rain = 0
KCA1 140218Z 05006KT 25/20 A3006 RMK A01 T02540200  RH  072%=      5-min Rain = 0
KCA1 140219Z 06005KT 25/20 A3006 RMK A01 T02540200  RH  072%=      5-min Rain = 0
KCA1 140220Z 06005KT 25/20 A3006 RMK A01 T02540200  RH  072%=      5-min Rain = 0
KCA1 140221Z 06005KT 25/20 A3007 RMK A01 T02540200  RH  072%=      5-min Rain = 0
KCA1 140222Z 06006KT 25/20 A3007 RMK A01 T02540200  RH  072%=      5-min Rain = 0
KCA1 140223Z 06006KT 25/20 A3007 RMK A01 T02530200  RH  072%=      5-min Rain = 0
KCA1 140224Z 06007KT 25/20 A3007 RMK A01 T02540200  RH  072%=      5-min Rain = 0
KCA1 140225Z 05007KT 25/20 A3007 RMK A01 T02540200  RH  072%=      5-min Rain = 0
KCA1 140226Z 06007KT 25/20 A3007 RMK A01 T02540200  RH  072%=      5-min Rain = 0
KCA1 140227Z 06007KT 25/20 A3007 RMK A01 T02530200  RH  072%=      5-min Rain = 0
KCA1 140228Z 06007KT 25/20 A3007 RMK A01 T02540200  RH  072%=      5-min Rain = 0
KCA1 140229Z 06007KT 25/20 A3007 RMK A01 T02530200  RH  073%=      5-min Rain = 0
KCA1 140230Z 06007KT 25/20 A3007 RMK A01 T02520200  RH  073%=      5-min Rain = 0
KCA1 140231Z 06007KT 25/20 A3007 RMK A01 T02520200  RH  073%=      5-min Rain = 0
KCA1 140232Z 07006KT 25/20 A3007 RMK A01 T02520200  RH  073%=      5-min Rain = 0
KCA1 140233Z 07006KT 25/20 A3007 RMK A01 T02510199  RH  073%=      5-min Rain = 0
KCA1 140234Z 07006KT 25/20 A3007 RMK A01 T02510200  RH  073%=      5-min Rain = 0
KCA1 140235Z 08006KT 25/20 A3007 RMK A01 T02510200  RH  073%=      5-min Rain = 0
KCA1 140236Z 08006KT 25/20 A3007 RMK A01 T02500200  RH  074%=      5-min Rain = 0
KCA1 140237Z 08007KT 25/20 A3007 RMK A01 T02490200  RH  074%=      5-min Rain = 0
KCA1 140238Z 07007KT 25/20 A3007 RMK A01 T02490200  RH  074%=      5-min Rain = 0
KCA1 140239Z 07007KT 25/20 A3007 RMK A01 T02480200  RH  074%=      5-min Rain = 0
KCA1 140240Z 08006KT 25/20 A3007 RMK A01 T02480199  RH  074%=      5-min Rain = 0
KCA1 140241Z 08006KT 25/20 A3007 RMK A01 T02480199  RH  074%=      5-min Rain = 0
KCA1 140242Z 08006KT 25/20 A3008 RMK A01 T02480199  RH  074%=      5-min Rain = 0
KCA1 140243Z 08006KT 25/20 A3008 RMK A01 T02480199  RH  074%=      5-min Rain = 0
KCA1 140244Z 08006KT 25/20 A3008 RMK A01 T02480199  RH  074%=      5-min Rain = 0
KCA1 140245Z 08007KT 25/20 A3008 RMK A01 T02490200  RH  074%=      5-min Rain = 0
KCA1 140246Z 08007KT 25/20 A3008 RMK A01 T02480199  RH  074%=      5-min Rain = 0
KCA1 140247Z 08008KT 25/20 A3008 RMK A01 T02480199  RH  074%=      5-min Rain = 0
KCA1 140248Z 08008KT 25/20 A3008 RMK A01 T02490199  RH  074%=      5-min Rain = 0
KCA1 140249Z 09008KT 25/20 A3008 RMK A01 T02500199  RH  073%=      5-min Rain = 0
KCA1 140250Z 09008KT 25/20 A3008 RMK A01 T02500199  RH  073%=      5-min Rain = 0
KCA1 140251Z 09008KT 25/20 A3008 RMK A01 T02510199  RH  073%=      5-min Rain = 0
KCA1 140252Z 09008KT 25/20 A3008 RMK A01 T02520199  RH  072%=      5-min Rain = 0
KCA1 140253Z 09008KT 25/20 A3008 RMK A01 T02530199  RH  072%=      5-min Rain = 0
KCA1 140254Z 09009KT 25/20 A3008 RMK A01 T02530199  RH  072%=      5-min Rain = 0
KCA1 140255Z 09008KT 25/20 A3008 RMK A01 T02540200  RH  072%=      5-min Rain = 0
KCA1 140256Z 08008KT 25/20 A3008 RMK A01 T02530200  RH  072%=      5-min Rain = 0
KCA1 140257Z 08008KT 25/20 A3008 RMK A01 T02540200  RH  072%=      5-min Rain = 0
KCA1 140258Z 08007KT 25/20 A3008 RMK A01 T02530200  RH  072%=      5-min Rain = 0
KCA1 140259Z 08007KT 25/20 A3008 RMK A01 T02540200  RH  072%=      5-min Rain = 0
KCA1 140300Z 08007KT 25/20 A3008 RMK A01 T02530200  RH  072%=      5-min Rain = 0
KCA1 140301Z 08006KT 25/20 A3008 RMK A01 T02530200  RH  072%=      5-min Rain = 0
KCA1 140302Z 07006KT 25/20 A3008 RMK A01 T02530200  RH  073%=      5-min Rain = 0
KCA1 140303Z 07006KT 25/20 A3008 RMK A01 T02520200  RH  073%=      5-min Rain = 0
KCA1 140304Z 06006KT 25/20 A3009 RMK A01 T02520200  RH  073%=      5-min Rain = 0
KCA1 140305Z 06006KT 25/20 A3009 RMK A01 T02520200  RH  073%=      5-min Rain = 0
KCA1 140306Z 07006KT 25/20 A3009 RMK A01 T02510200  RH  073%=      5-min Rain = 0
KCA1 140307Z 06006KT 25/20 A3009 RMK A01 T02510200  RH  073%=      5-min Rain = 0
KCA1 140308Z 06006KT 25/20 A3009 RMK A01 T02510200  RH  073%=      5-min Rain = 0
KCA1 140309Z 06006KT 25/20 A3009 RMK A01 T02510200  RH  073%=      5-min Rain = 0
KCA1 140310Z 06006KT 25/20 A3009 RMK A01 T02510200  RH  073%=      5-min Rain = 0
KCA1 140311Z 06006KT 25/20 A3009 RMK A01 T02510201  RH  074%=      5-min Rain = 0
KCA1 140312Z 06007KT 25/20 A3009 RMK A01 T02500201  RH  074%=      5-min Rain = 0
KCA1 140313Z 06006KT 25/20 A3009 RMK A01 T02490200  RH  074%=      5-min Rain = 0
KCA1 140314Z 06006KT 25/20 A3009 RMK A01 T02490200  RH  074%=      5-min Rain = 0
KCA1 140315Z 06006KT 25/20 A3009 RMK A01 T02490200  RH  074%=      5-min Rain = 0
KCA1 140316Z 06006KT 25/20 A3009 RMK A01 T02490201  RH  074%=      5-min Rain = 0
KCA1 140317Z 06006KT 25/20 A301 RMK A01 T02480200  RH  075%=      5-min Rain = 0
KCA1 140318Z 05006KT 25/20 A301 RMK A01 T02480200  RH  075%=      5-min Rain = 0
KCA1 140319Z 04006KT 25/20 A301 RMK A01 T02470200  RH  075%=      5-min Rain = 0
KCA1 140320Z 04005KT 25/20 A301 RMK A01 T02470201  RH  075%=      5-min Rain = 0
KCA1 140321Z 04006KT 25/20 A301 RMK A01 T02460201  RH  076%=      5-min Rain = 0
KCA1 140322Z 04006KT 25/20 A301 RMK A01 T02450201  RH  076%=      5-min Rain = 0
KCA1 140323Z 05006KT 25/20 A301 RMK A01 T02450201  RH  077%=      5-min Rain = 0
KCA1 140324Z 05007KT 24/20 A301 RMK A01 T02440201  RH  077%=      5-min Rain = 0
KCA1 140325Z 05008KT 24/20 A301 RMK A01 T02440202  RH  077%=      5-min Rain = 0
KCA1 140326Z 05008KT 24/20 A301 RMK A01 T02430202  RH  078%=      5-min Rain = 0
KCA1 140327Z 06007KT 24/20 A301 RMK A01 T02440203  RH  078%=      5-min Rain = 0
KCA1 140328Z 05008KT 24/20 A301 RMK A01 T02430202  RH  078%=      5-min Rain = 0
KCA1 140329Z 06008KT 24/20 A3011 RMK A01 T02430202  RH  078%=      5-min Rain = 0
KCA1 140330Z 06009KT 24/20 A3011 RMK A01 T02440202  RH  077%=      5-min Rain = 0
KCA1 140331Z 06009KT 24/20 A3011 RMK A01 T02440202  RH  077%=      5-min Rain = 0
KCA1 140332Z 06008KT 25/20 A3011 RMK A01 T02450201  RH  077%=      5-min Rain = 0
KCA1 140333Z 06008KT 25/20 A3011 RMK A01 T02450202  RH  077%=      5-min Rain = 0
KCA1 140334Z 06007KT 25/20 A3011 RMK A01 T02450202  RH  077%=      5-min Rain = 0
KCA1 140335Z 06008KT 25/20 A3012 RMK A01 T02450202  RH  077%=      5-min Rain = 0
KCA1 140336Z 05008KT 25/20 A3012 RMK A01 T02450202  RH  077%=      5-min Rain = 0
KCA1 140337Z 05008KT 25/20 A3012 RMK A01 T02460202  RH  077%=      5-min Rain = 0
KCA1 140338Z 05009KT 25/20 A3012 RMK A01 T02460202  RH  076%=      5-min Rain = 0
KCA1 140339Z 05009KT 25/20 A3012 RMK A01 T02480202  RH  076%=      5-min Rain = 0
KCA1 140340Z 05009KT 25/20 A3013 RMK A01 T02480202  RH  075%=      5-min Rain = 0
KCA1 140341Z 05009KT 25/20 A3013 RMK A01 T02490202  RH  075%=      5-min Rain = 0
KCA1 140342Z 05009KT 25/20 A3013 RMK A01 T02500203  RH  075%=      5-min Rain = 0
KCA1 140343Z 05010KT 25/20 A3013 RMK A01 T02490202  RH  075%=      5-min Rain = 0
KCA1 140344Z 05010KT 25/20 A3013 RMK A01 T02500203  RH  075%=      5-min Rain = 0
KCA1 140345Z 05010KT 25/20 A3014 RMK A01 T02500202  RH  075%=      5-min Rain = 0
KCA1 140346Z 05009KT 25/20 A3014 RMK A01 T02510203  RH  075%=      5-min Rain = 0
KCA1 140347Z 05010KT 25/20 A3014 RMK A01 T02510203  RH  075%=      5-min Rain = 0
KCA1 140348Z 05010KT 25/20 A3014 RMK A01 T02510203  RH  074%=      5-min Rain = 0
KCA1 140349Z 05009KT 25/20 A3014 RMK A01 T02520203  RH  074%=      5-min Rain = 0
KCA1 140350Z 05009KT 25/20 A3014 RMK A01 T02520203  RH  074%=      5-min Rain = 0
KCA1 140351Z 05009KT 25/20 A3014 RMK A01 T02520203  RH  074%=      5-min Rain = 0
KCA1 140352Z 04009KT 25/20 A3014 RMK A01 T02530203  RH  074%=      5-min Rain = 0
KCA1 140353Z 04009KT 25/20 A3015 RMK A01 T02540203  RH  074%=      5-min Rain = 0
KCA1 140354Z 03010KT 25/20 A3015 RMK A01 T02540204  RH  074%=      5-min Rain = 0
KCA1 140355Z 01016G21KT 26/20 A3017 RMK A01 T02550204  RH  074%=      5-min Rain = 0
KCA1 140356Z 01025G36KT 26/20 A3017 RMK A01 T02550199  RH  071%=      5-min Rain = 0
KCA1 140357Z 01030G35KT 25/17 A3018 RMK A01 T02480170  RH  062%=      5-min Rain = 0
KCA1 140358Z 02025G33KT 24/16 A3018 RMK A01 T02380161  RH  062%=      5-min Rain = 0
KCA1 140359Z 02029G36KT 23/16 A3018 RMK A01 T02320157  RH  063%=      5-min Rain = 0
KCA1 140400Z 02026G40KT 23/16 A3018 RMK A01 T02290156  RH  063%=      5-min Rain = 0
KCA1 140401Z 02029G44KT 23/16 A3018 RMK A01 T02280155  RH  063%=      5-min Rain = 0
KCA1 140402Z 02032G44KT 23/15 A3018 RMK A01 T02280153  RH  063%=      5-min Rain = 0
KCA1 140403Z 01025G33KT 23/15 A3018 RMK A01 T02280151  RH  062%=      5-min Rain = 0
KCA1 140404Z 02031G42KT 23/15 A3018 RMK A01 T02260150  RH  062%=      5-min Rain = 0
KCA1 140405Z 02032G41KT 22/15 A3018 RMK A01 T02240149  RH  062%=      5-min Rain = 0
KCA1 140406Z 02031G37KT 22/15 A3018 RMK A01 T02230148  RH  063%=      5-min Rain = 0
KCA1 140407Z 02030KT 22/15 A3018 RMK A01 T02220149  RH  063%=      5-min Rain = 0
KCA1 140408Z 02030G36KT 22/15 A3018 RMK A01 T02220148  RH  063%=      5-min Rain = 0
KCA1 140409Z 02027G39KT 22/15 A3018 RMK A01 T02210148  RH  063%=      5-min Rain = 0
KCA1 140410Z 02029KT 22/15 A3018 RMK A01 T02210148  RH  063%=      5-min Rain = 0
KCA1 140411Z 02028G34KT 22/15 A3019 RMK A01 T02210148  RH  063%=      5-min Rain = 0
KCA1 140412Z 02029G36KT 22/15 A3019 RMK A01 T02210147  RH  063%=      5-min Rain = 0
KCA1 140413Z 02028G35KT 22/15 A3019 RMK A01 T02200147  RH  063%=      5-min Rain = 0
KCA1 140414Z 03029G35KT 22/15 A3019 RMK A01 T02200146  RH  063%=      5-min Rain = 0
KCA1 140415Z 03028G34KT 22/15 A302 RMK A01 T02200145  RH  063%=      5-min Rain = 0
KCA1 140416Z 02025G30KT 22/15 A302 RMK A01 T02200145  RH  063%=      5-min Rain = 0
KCA1 140417Z 02028G35KT 22/15 A302 RMK A01 T02200145  RH  063%=      5-min Rain = 0
KCA1 140418Z 03024KT 22/15 A302 RMK A01 T02190145  RH  063%=      5-min Rain = 0
KCA1 140419Z 02025G33KT 22/15 A3019 RMK A01 T02180145  RH  063%=      5-min Rain = 0
KCA1 140420Z 02025G31KT 22/15 A3019 RMK A01 T02180145  RH  063%=      5-min Rain = 0
KCA1 140421Z 02031G39KT 22/14 A302 RMK A01 T02180144  RH  063%=      5-min Rain = 0
KCA1 140422Z 03028G33KT 22/14 A302 RMK A01 T02180143  RH  063%=      5-min Rain = 0
KCA1 140423Z 02033G41KT 22/14 A302 RMK A01 T02170143  RH  063%=      5-min Rain = 0
KCA1 140424Z 03031G37KT 22/14 A302 RMK A01 T02170142  RH  062%=      5-min Rain = 0
KCA1 140425Z 03032G37KT 22/14 A302 RMK A01 T02160142  RH  063%=      5-min Rain = 0
KCA1 140426Z 03030G37KT 22/14 A3019 RMK A01 T02160143  RH  063%=      5-min Rain = 0
KCA1 140427Z 02029G34KT 22/14 A3019 RMK A01 T02150142  RH  063%=      5-min Rain = 0
KCA1 140428Z 03025G30KT 21/14 A3019 RMK A01 T02140143  RH  064%=      5-min Rain = 0
KCA1 140429Z 03024G30KT 21/14 A3019 RMK A01 T02140143  RH  064%=      5-min Rain = 0
KCA1 140430Z 03024G31KT 21/14 A3019 RMK A01 T02130144  RH  064%=      5-min Rain = 0
KCA1 140431Z 03032G39KT 21/14 A302 RMK A01 T02130143  RH  065%=      5-min Rain = 0
KCA1 140432Z 03029G35KT 21/14 A302 RMK A01 T02130143  RH  064%=      5-min Rain = 0
KCA1 140433Z 03024G31KT 21/14 A302 RMK A01 T02130144  RH  065%=      5-min Rain = 0
KCA1 140434Z 03023G29KT 21/14 A3019 RMK A01 T02120144  RH  065%=      5-min Rain = 0
KCA1 140435Z 03022G27KT 21/14 A3019 RMK A01 T02110144  RH  065%=      5-min Rain = 0
KCA1 140436Z 02025G30KT 21/14 A3019 RMK A01 T02110144  RH  065%=      5-min Rain = 0
KCA1 140437Z 03021KT 21/14 A3019 RMK A01 T02100144  RH  066%=      5-min Rain = 0
KCA1 140438Z 03024KT 21/14 A3019 RMK A01 T02110144  RH  066%=      5-min Rain = 0
KCA1 140439Z 03024G33KT 21/14 A3019 RMK A01 T02100143  RH  066%=      5-min Rain = 0
KCA1 140440Z 03023KT 21/14 A3019 RMK A01 T02100144  RH  066%=      5-min Rain = 0
KCA1 140441Z 03023KT 21/14 A3019 RMK A01 T02100144  RH  066%=      5-min Rain = 0
KCA1 140442Z 03021G29KT 21/14 A3019 RMK A01 T02100143  RH  066%=      5-min Rain = 0
KCA1 140443Z 03022G28KT 21/14 A3019 RMK A01 T02090143  RH  066%=      5-min Rain = 0
KCA1 140444Z 03022KT 21/14 A3019 RMK A01 T02090143  RH  066%=      5-min Rain = 0
KCA1 140445Z 03029KT 21/14 A3019 RMK A01 T02090143  RH  066%=      5-min Rain = 0
KCA1 140446Z 03027KT 21/14 A3019 RMK A01 T02090142  RH  065%=      5-min Rain = 0
KCA1 140447Z 03022G29KT 21/14 A3019 RMK A01 T02090141  RH  065%=      5-min Rain = 0
KCA1 140448Z 03020KT 21/14 A3019 RMK A01 T02090142  RH  066%=      5-min Rain = 0
KCA1 140449Z 03022KT 21/14 A3019 RMK A01 T02080142  RH  066%=      5-min Rain = 0
KCA1 140450Z 03019G25KT 21/14 A3019 RMK A01 T02090142  RH  066%=      5-min Rain = 0
KCA1 140451Z 03021KT 21/14 A3018 RMK A01 T02080142  RH  066%=      5-min Rain = 0
KCA1 140452Z 03023KT 21/14 A3018 RMK A01 T02080142  RH  066%=      5-min Rain = 0
KCA1 140453Z 03018G23KT 21/14 A3018 RMK A01 T02080141  RH  066%=      5-min Rain = 0
KCA1 140454Z 03021G26KT 21/14 A3018 RMK A01 T02080141  RH  066%=      5-min Rain = 0
KCA1 140455Z 03020KT 21/14 A3018 RMK A01 T02080142  RH  066%=      5-min Rain = 0
KCA1 140456Z 03020G28KT 21/14 A3018 RMK A01 T02080141  RH  066%=      5-min Rain = 0
KCA1 140457Z 04024KT 21/14 A3018 RMK A01 T02080141  RH  065%=      5-min Rain = 0
KCA1 140458Z 04025KT 21/14 A3018 RMK A01 T02080140  RH  065%=      5-min Rain = 0
KCA1 140459Z 04022KT 21/14 A3017 RMK A01 T02090140  RH  064%=      5-min Rain = 0

Page generated in 0.0716 seconds.